<?xml version="1.0" encoding="UTF-8" standalone="no" ?>
<gpx xmlns="http://www.topografix.com/GPX/1/1" xmlns:xsi="http://www.w3.org/2001/XMLSchema-instance" xsi:schemaLocation="http://www.topografix.com/GPX/1/1 http://www.topografix.com/GPX/1/1/gpx.xsd" version="1.1" creator="VisuGPX - https://www.visugpx.com">
  <metadata>
    <name>autour de grignan</name>
    <desc><![CDATA[atour de grignan randonnee pedestre]]></desc>
  </metadata>
  <trk>
    <name><![CDATA[--Grignan-- OR-5380322:autour de grignan]]></name>
    <trkseg>
      <trkpt lat="44.4184" lon="4.91035">
        <ele>198</ele>
        <time>2015-10-19T18:04:41Z</time>
      </trkpt>
      <trkpt lat="44.41841" lon="4.91034">
        <ele>198</ele>
        <time>2015-10-19T18:06:41Z</time>
      </trkpt>
      <trkpt lat="44.41841" lon="4.91035">
        <ele>198</ele>
        <time>2015-10-19T18:08:41Z</time>
      </trkpt>
      <trkpt lat="44.41841" lon="4.91035">
        <ele>198</ele>
        <time>2015-10-19T18:10:41Z</time>
      </trkpt>
      <trkpt lat="44.41842" lon="4.91035">
        <ele>198</ele>
        <time>2015-10-19T18:12:41Z</time>
      </trkpt>
      <trkpt lat="44.4184" lon="4.91035">
        <ele>198</ele>
        <time>2015-10-19T18:14:41Z</time>
      </trkpt>
      <trkpt lat="44.41838" lon="4.9103">
        <ele>199</ele>
        <time>2015-10-19T18:16:41Z</time>
      </trkpt>
      <trkpt lat="44.41839" lon="4.91031">
        <ele>199</ele>
        <time>2015-10-19T18:18:41Z</time>
      </trkpt>
      <trkpt lat="44.41839" lon="4.91031">
        <ele>199</ele>
        <time>2015-10-19T18:20:41Z</time>
      </trkpt>
      <trkpt lat="44.41838" lon="4.91031">
        <ele>199</ele>
        <time>2015-10-19T18:22:41Z</time>
      </trkpt>
      <trkpt lat="44.41837" lon="4.91031">
        <ele>199</ele>
        <time>2015-10-19T18:24:41Z</time>
      </trkpt>
      <trkpt lat="44.4184" lon="4.91031">
        <ele>199</ele>
        <time>2015-10-19T18:26:41Z</time>
      </trkpt>
      <trkpt lat="44.41838" lon="4.91029">
        <ele>199</ele>
        <time>2015-10-19T18:28:41Z</time>
      </trkpt>
      <trkpt lat="44.41838" lon="4.9103">
        <ele>199</ele>
        <time>2015-10-19T18:30:41Z</time>
      </trkpt>
      <trkpt lat="44.4184" lon="4.91032">
        <ele>199</ele>
        <time>2015-10-19T18:32:41Z</time>
      </trkpt>
      <trkpt lat="44.41844" lon="4.91034">
        <ele>198</ele>
        <time>2015-10-19T18:34:41Z</time>
      </trkpt>
      <trkpt lat="44.41841" lon="4.91032">
        <ele>199</ele>
        <time>2015-10-19T18:36:41Z</time>
      </trkpt>
      <trkpt lat="44.41841" lon="4.91033">
        <ele>198</ele>
        <time>2015-10-19T18:38:41Z</time>
      </trkpt>
      <trkpt lat="44.41842" lon="4.91035">
        <ele>198</ele>
        <time>2015-10-19T18:40:41Z</time>
      </trkpt>
      <trkpt lat="44.41841" lon="4.91033">
        <ele>198</ele>
        <time>2015-10-19T18:42:41Z</time>
      </trkpt>
      <trkpt lat="44.41842" lon="4.91034">
        <ele>198</ele>
        <time>2015-10-19T18:44:41Z</time>
      </trkpt>
      <trkpt lat="44.41842" lon="4.91035">
        <ele>198</ele>
        <time>2015-10-19T18:46:41Z</time>
      </trkpt>
      <trkpt lat="44.4185" lon="4.91037">
        <ele>198</ele>
        <time>2015-10-19T18:48:41Z</time>
      </trkpt>
      <trkpt lat="44.41864" lon="4.91034">
        <ele>198</ele>
        <time>2015-10-19T18:50:41Z</time>
      </trkpt>
      <trkpt lat="44.41876" lon="4.91033">
        <ele>198</ele>
        <time>2015-10-19T18:52:41Z</time>
      </trkpt>
      <trkpt lat="44.41886" lon="4.91027">
        <ele>199</ele>
        <time>2015-10-19T18:54:41Z</time>
      </trkpt>
      <trkpt lat="44.41893" lon="4.91027">
        <ele>198</ele>
        <time>2015-10-19T18:56:41Z</time>
      </trkpt>
      <trkpt lat="44.4191" lon="4.91023">
        <ele>199</ele>
        <time>2015-10-19T18:58:41Z</time>
      </trkpt>
      <trkpt lat="44.41929" lon="4.91029">
        <ele>197</ele>
        <time>2015-10-19T19:00:41Z</time>
      </trkpt>
      <trkpt lat="44.41938" lon="4.91033">
        <ele>196</ele>
        <time>2015-10-19T19:02:41Z</time>
      </trkpt>
      <trkpt lat="44.41946" lon="4.91028">
        <ele>197</ele>
        <time>2015-10-19T19:04:41Z</time>
      </trkpt>
      <trkpt lat="44.41956" lon="4.91031">
        <ele>196</ele>
        <time>2015-10-19T19:06:41Z</time>
      </trkpt>
      <trkpt lat="44.41958" lon="4.91032">
        <ele>196</ele>
        <time>2015-10-19T19:08:41Z</time>
      </trkpt>
      <trkpt lat="44.41967" lon="4.91045">
        <ele>194</ele>
        <time>2015-10-19T19:10:41Z</time>
      </trkpt>
      <trkpt lat="44.41978" lon="4.91049">
        <ele>194</ele>
        <time>2015-10-19T19:12:41Z</time>
      </trkpt>
      <trkpt lat="44.41982" lon="4.91037">
        <ele>194</ele>
        <time>2015-10-19T19:14:41Z</time>
      </trkpt>
      <trkpt lat="44.41987" lon="4.91023">
        <ele>195</ele>
        <time>2015-10-19T19:16:41Z</time>
      </trkpt>
      <trkpt lat="44.41997" lon="4.91014">
        <ele>195</ele>
        <time>2015-10-19T19:18:41Z</time>
      </trkpt>
      <trkpt lat="44.4201" lon="4.91004">
        <ele>195</ele>
        <time>2015-10-19T19:20:41Z</time>
      </trkpt>
      <trkpt lat="44.42022" lon="4.9099">
        <ele>196</ele>
        <time>2015-10-19T19:22:41Z</time>
      </trkpt>
      <trkpt lat="44.42024" lon="4.90989">
        <ele>196</ele>
        <time>2015-10-19T19:24:41Z</time>
      </trkpt>
      <trkpt lat="44.42037" lon="4.90975">
        <ele>197</ele>
        <time>2015-10-19T19:26:41Z</time>
      </trkpt>
      <trkpt lat="44.42039" lon="4.90973">
        <ele>197</ele>
        <time>2015-10-19T19:28:41Z</time>
      </trkpt>
      <trkpt lat="44.42045" lon="4.90955">
        <ele>199</ele>
        <time>2015-10-19T19:30:41Z</time>
      </trkpt>
      <trkpt lat="44.4206" lon="4.90949">
        <ele>198</ele>
        <time>2015-10-19T19:32:41Z</time>
      </trkpt>
      <trkpt lat="44.42082" lon="4.90921">
        <ele>199</ele>
        <time>2015-10-19T19:34:41Z</time>
      </trkpt>
      <trkpt lat="44.42091" lon="4.90909">
        <ele>199</ele>
        <time>2015-10-19T19:36:41Z</time>
      </trkpt>
      <trkpt lat="44.42099" lon="4.90894">
        <ele>199</ele>
        <time>2015-10-19T19:38:41Z</time>
      </trkpt>
      <trkpt lat="44.4211" lon="4.90887">
        <ele>199</ele>
        <time>2015-10-19T19:40:41Z</time>
      </trkpt>
      <trkpt lat="44.42118" lon="4.90875">
        <ele>200</ele>
        <time>2015-10-19T19:42:41Z</time>
      </trkpt>
      <trkpt lat="44.42125" lon="4.90874">
        <ele>200</ele>
        <time>2015-10-19T19:44:41Z</time>
      </trkpt>
      <trkpt lat="44.42135" lon="4.90878">
        <ele>199</ele>
        <time>2015-10-19T19:46:41Z</time>
      </trkpt>
      <trkpt lat="44.42139" lon="4.90882">
        <ele>199</ele>
        <time>2015-10-19T19:48:41Z</time>
      </trkpt>
      <trkpt lat="44.42153" lon="4.90892">
        <ele>198</ele>
        <time>2015-10-19T19:50:41Z</time>
      </trkpt>
      <trkpt lat="44.42164" lon="4.90903">
        <ele>198</ele>
        <time>2015-10-19T19:52:41Z</time>
      </trkpt>
      <trkpt lat="44.42174" lon="4.90913">
        <ele>197</ele>
        <time>2015-10-19T19:54:41Z</time>
      </trkpt>
      <trkpt lat="44.42179" lon="4.90915">
        <ele>197</ele>
        <time>2015-10-19T19:56:41Z</time>
      </trkpt>
      <trkpt lat="44.42189" lon="4.90925">
        <ele>197</ele>
        <time>2015-10-19T19:58:41Z</time>
      </trkpt>
      <trkpt lat="44.42192" lon="4.90928">
        <ele>196</ele>
        <time>2015-10-19T20:00:41Z</time>
      </trkpt>
      <trkpt lat="44.42204" lon="4.90938">
        <ele>196</ele>
        <time>2015-10-19T20:02:41Z</time>
      </trkpt>
      <trkpt lat="44.42207" lon="4.90941">
        <ele>196</ele>
        <time>2015-10-19T20:04:41Z</time>
      </trkpt>
      <trkpt lat="44.42224" lon="4.90951">
        <ele>196</ele>
        <time>2015-10-19T20:06:41Z</time>
      </trkpt>
      <trkpt lat="44.42235" lon="4.90955">
        <ele>196</ele>
        <time>2015-10-19T20:08:41Z</time>
      </trkpt>
      <trkpt lat="44.42246" lon="4.90956">
        <ele>196</ele>
        <time>2015-10-19T20:10:41Z</time>
      </trkpt>
      <trkpt lat="44.42259" lon="4.90959">
        <ele>197</ele>
        <time>2015-10-19T20:12:41Z</time>
      </trkpt>
      <trkpt lat="44.42263" lon="4.9096">
        <ele>197</ele>
        <time>2015-10-19T20:14:41Z</time>
      </trkpt>
      <trkpt lat="44.42266" lon="4.90962">
        <ele>198</ele>
        <time>2015-10-19T20:16:41Z</time>
      </trkpt>
      <trkpt lat="44.42279" lon="4.90962">
        <ele>199</ele>
        <time>2015-10-19T20:18:41Z</time>
      </trkpt>
      <trkpt lat="44.42288" lon="4.90962">
        <ele>199</ele>
        <time>2015-10-19T20:20:41Z</time>
      </trkpt>
      <trkpt lat="44.42301" lon="4.90965">
        <ele>200</ele>
        <time>2015-10-19T20:22:41Z</time>
      </trkpt>
      <trkpt lat="44.42314" lon="4.90972">
        <ele>202</ele>
        <time>2015-10-19T20:24:41Z</time>
      </trkpt>
      <trkpt lat="44.42328" lon="4.90975">
        <ele>203</ele>
        <time>2015-10-19T20:26:41Z</time>
      </trkpt>
      <trkpt lat="44.42334" lon="4.9099">
        <ele>204</ele>
        <time>2015-10-19T20:28:41Z</time>
      </trkpt>
      <trkpt lat="44.42335" lon="4.90998">
        <ele>205</ele>
        <time>2015-10-19T20:30:41Z</time>
      </trkpt>
      <trkpt lat="44.42341" lon="4.91018">
        <ele>206</ele>
        <time>2015-10-19T20:32:41Z</time>
      </trkpt>
      <trkpt lat="44.42351" lon="4.91055">
        <ele>207</ele>
        <time>2015-10-19T20:34:41Z</time>
      </trkpt>
      <trkpt lat="44.42356" lon="4.91063">
        <ele>207</ele>
        <time>2015-10-19T20:36:41Z</time>
      </trkpt>
      <trkpt lat="44.42362" lon="4.91066">
        <ele>208</ele>
        <time>2015-10-19T20:38:41Z</time>
      </trkpt>
      <trkpt lat="44.42374" lon="4.91072">
        <ele>208</ele>
        <time>2015-10-19T20:40:41Z</time>
      </trkpt>
      <trkpt lat="44.42386" lon="4.9108">
        <ele>209</ele>
        <time>2015-10-19T20:42:41Z</time>
      </trkpt>
      <trkpt lat="44.42404" lon="4.91087">
        <ele>210</ele>
        <time>2015-10-19T20:44:41Z</time>
      </trkpt>
      <trkpt lat="44.4241" lon="4.91092">
        <ele>210</ele>
        <time>2015-10-19T20:46:41Z</time>
      </trkpt>
      <trkpt lat="44.42418" lon="4.91101">
        <ele>210</ele>
        <time>2015-10-19T20:48:41Z</time>
      </trkpt>
      <trkpt lat="44.42429" lon="4.91124">
        <ele>210</ele>
        <time>2015-10-19T20:50:41Z</time>
      </trkpt>
      <trkpt lat="44.42435" lon="4.91146">
        <ele>210</ele>
        <time>2015-10-19T20:52:41Z</time>
      </trkpt>
      <trkpt lat="44.42438" lon="4.91159">
        <ele>210</ele>
        <time>2015-10-19T20:54:41Z</time>
      </trkpt>
      <trkpt lat="44.42443" lon="4.91172">
        <ele>210</ele>
        <time>2015-10-19T20:56:41Z</time>
      </trkpt>
      <trkpt lat="44.42452" lon="4.91176">
        <ele>211</ele>
        <time>2015-10-19T20:58:41Z</time>
      </trkpt>
      <trkpt lat="44.42468" lon="4.91179">
        <ele>212</ele>
        <time>2015-10-19T21:00:41Z</time>
      </trkpt>
      <trkpt lat="44.42476" lon="4.91181">
        <ele>213</ele>
        <time>2015-10-19T21:02:41Z</time>
      </trkpt>
      <trkpt lat="44.42496" lon="4.91187">
        <ele>214</ele>
        <time>2015-10-19T21:04:41Z</time>
      </trkpt>
      <trkpt lat="44.42513" lon="4.91195">
        <ele>215</ele>
        <time>2015-10-19T21:06:41Z</time>
      </trkpt>
      <trkpt lat="44.42525" lon="4.91202">
        <ele>216</ele>
        <time>2015-10-19T21:08:41Z</time>
      </trkpt>
      <trkpt lat="44.42539" lon="4.91211">
        <ele>217</ele>
        <time>2015-10-19T21:10:41Z</time>
      </trkpt>
      <trkpt lat="44.42549" lon="4.91217">
        <ele>217</ele>
        <time>2015-10-19T21:12:41Z</time>
      </trkpt>
      <trkpt lat="44.42569" lon="4.91227">
        <ele>219</ele>
        <time>2015-10-19T21:14:41Z</time>
      </trkpt>
      <trkpt lat="44.42596" lon="4.91239">
        <ele>220</ele>
        <time>2015-10-19T21:16:41Z</time>
      </trkpt>
      <trkpt lat="44.4261" lon="4.91245">
        <ele>220</ele>
        <time>2015-10-19T21:18:41Z</time>
      </trkpt>
      <trkpt lat="44.42627" lon="4.9125">
        <ele>220</ele>
        <time>2015-10-19T21:20:41Z</time>
      </trkpt>
      <trkpt lat="44.42643" lon="4.91265">
        <ele>220</ele>
        <time>2015-10-19T21:22:41Z</time>
      </trkpt>
      <trkpt lat="44.42658" lon="4.91272">
        <ele>220</ele>
        <time>2015-10-19T21:24:41Z</time>
      </trkpt>
      <trkpt lat="44.4267" lon="4.91282">
        <ele>221</ele>
        <time>2015-10-19T21:26:41Z</time>
      </trkpt>
      <trkpt lat="44.42675" lon="4.91284">
        <ele>221</ele>
        <time>2015-10-19T21:28:41Z</time>
      </trkpt>
      <trkpt lat="44.42689" lon="4.91293">
        <ele>221</ele>
        <time>2015-10-19T21:30:41Z</time>
      </trkpt>
      <trkpt lat="44.42704" lon="4.91308">
        <ele>222</ele>
        <time>2015-10-19T21:32:41Z</time>
      </trkpt>
      <trkpt lat="44.42716" lon="4.91323">
        <ele>222</ele>
        <time>2015-10-19T21:34:41Z</time>
      </trkpt>
      <trkpt lat="44.42729" lon="4.91342">
        <ele>222</ele>
        <time>2015-10-19T21:36:41Z</time>
      </trkpt>
      <trkpt lat="44.42744" lon="4.91354">
        <ele>222</ele>
        <time>2015-10-19T21:38:41Z</time>
      </trkpt>
      <trkpt lat="44.42759" lon="4.91366">
        <ele>222</ele>
        <time>2015-10-19T21:40:41Z</time>
      </trkpt>
      <trkpt lat="44.42771" lon="4.91379">
        <ele>221</ele>
        <time>2015-10-19T21:42:41Z</time>
      </trkpt>
      <trkpt lat="44.42773" lon="4.9138">
        <ele>221</ele>
        <time>2015-10-19T21:44:41Z</time>
      </trkpt>
      <trkpt lat="44.42789" lon="4.91393">
        <ele>221</ele>
        <time>2015-10-19T21:46:41Z</time>
      </trkpt>
      <trkpt lat="44.42799" lon="4.91407">
        <ele>220</ele>
        <time>2015-10-19T21:48:41Z</time>
      </trkpt>
      <trkpt lat="44.4281" lon="4.91419">
        <ele>220</ele>
        <time>2015-10-19T21:50:41Z</time>
      </trkpt>
      <trkpt lat="44.42817" lon="4.91428">
        <ele>220</ele>
        <time>2015-10-19T21:52:41Z</time>
      </trkpt>
      <trkpt lat="44.42828" lon="4.91448">
        <ele>220</ele>
        <time>2015-10-19T21:54:41Z</time>
      </trkpt>
      <trkpt lat="44.42832" lon="4.91473">
        <ele>220</ele>
        <time>2015-10-19T21:56:41Z</time>
      </trkpt>
      <trkpt lat="44.42837" lon="4.91495">
        <ele>220</ele>
        <time>2015-10-19T21:58:41Z</time>
      </trkpt>
      <trkpt lat="44.42847" lon="4.9154">
        <ele>220</ele>
        <time>2015-10-19T22:00:41Z</time>
      </trkpt>
      <trkpt lat="44.42852" lon="4.91562">
        <ele>221</ele>
        <time>2015-10-19T22:02:41Z</time>
      </trkpt>
      <trkpt lat="44.42856" lon="4.91583">
        <ele>221</ele>
        <time>2015-10-19T22:04:41Z</time>
      </trkpt>
      <trkpt lat="44.4287" lon="4.91626">
        <ele>220</ele>
        <time>2015-10-19T22:06:41Z</time>
      </trkpt>
      <trkpt lat="44.42873" lon="4.91641">
        <ele>220</ele>
        <time>2015-10-19T22:08:41Z</time>
      </trkpt>
      <trkpt lat="44.42874" lon="4.91646">
        <ele>220</ele>
        <time>2015-10-19T22:10:41Z</time>
      </trkpt>
      <trkpt lat="44.42876" lon="4.91654">
        <ele>220</ele>
        <time>2015-10-19T22:12:41Z</time>
      </trkpt>
      <trkpt lat="44.42885" lon="4.91677">
        <ele>220</ele>
        <time>2015-10-19T22:14:41Z</time>
      </trkpt>
      <trkpt lat="44.42893" lon="4.91694">
        <ele>221</ele>
        <time>2015-10-19T22:16:41Z</time>
      </trkpt>
      <trkpt lat="44.42897" lon="4.91716">
        <ele>221</ele>
        <time>2015-10-19T22:18:41Z</time>
      </trkpt>
      <trkpt lat="44.42904" lon="4.91739">
        <ele>222</ele>
        <time>2015-10-19T22:20:41Z</time>
      </trkpt>
      <trkpt lat="44.42914" lon="4.91763">
        <ele>222</ele>
        <time>2015-10-19T22:22:41Z</time>
      </trkpt>
      <trkpt lat="44.4292" lon="4.91783">
        <ele>223</ele>
        <time>2015-10-19T22:24:41Z</time>
      </trkpt>
      <trkpt lat="44.42926" lon="4.91805">
        <ele>223</ele>
        <time>2015-10-19T22:26:41Z</time>
      </trkpt>
      <trkpt lat="44.42935" lon="4.91831">
        <ele>223</ele>
        <time>2015-10-19T22:28:41Z</time>
      </trkpt>
      <trkpt lat="44.4294" lon="4.91843">
        <ele>223</ele>
        <time>2015-10-19T22:30:41Z</time>
      </trkpt>
      <trkpt lat="44.42947" lon="4.91857">
        <ele>223</ele>
        <time>2015-10-19T22:32:41Z</time>
      </trkpt>
      <trkpt lat="44.42963" lon="4.91886">
        <ele>223</ele>
        <time>2015-10-19T22:34:41Z</time>
      </trkpt>
      <trkpt lat="44.42969" lon="4.91894">
        <ele>223</ele>
        <time>2015-10-19T22:36:41Z</time>
      </trkpt>
      <trkpt lat="44.42973" lon="4.91905">
        <ele>223</ele>
        <time>2015-10-19T22:38:41Z</time>
      </trkpt>
      <trkpt lat="44.4298" lon="4.91919">
        <ele>223</ele>
        <time>2015-10-19T22:40:41Z</time>
      </trkpt>
      <trkpt lat="44.42988" lon="4.91935">
        <ele>223</ele>
        <time>2015-10-19T22:42:41Z</time>
      </trkpt>
      <trkpt lat="44.42989" lon="4.91936">
        <ele>223</ele>
        <time>2015-10-19T22:44:41Z</time>
      </trkpt>
      <trkpt lat="44.42994" lon="4.91949">
        <ele>224</ele>
        <time>2015-10-19T22:46:41Z</time>
      </trkpt>
      <trkpt lat="44.42999" lon="4.9196">
        <ele>224</ele>
        <time>2015-10-19T22:48:41Z</time>
      </trkpt>
      <trkpt lat="44.43" lon="4.91967">
        <ele>224</ele>
        <time>2015-10-19T22:50:41Z</time>
      </trkpt>
      <trkpt lat="44.42999" lon="4.91982">
        <ele>225</ele>
        <time>2015-10-19T22:52:41Z</time>
      </trkpt>
      <trkpt lat="44.42999" lon="4.91987">
        <ele>225</ele>
        <time>2015-10-19T22:54:41Z</time>
      </trkpt>
      <trkpt lat="44.42998" lon="4.91994">
        <ele>225</ele>
        <time>2015-10-19T22:56:41Z</time>
      </trkpt>
      <trkpt lat="44.42999" lon="4.91992">
        <ele>225</ele>
        <time>2015-10-19T22:58:41Z</time>
      </trkpt>
      <trkpt lat="44.43008" lon="4.92023">
        <ele>224</ele>
        <time>2015-10-19T23:00:41Z</time>
      </trkpt>
      <trkpt lat="44.43013" lon="4.92041">
        <ele>224</ele>
        <time>2015-10-19T23:02:41Z</time>
      </trkpt>
      <trkpt lat="44.43016" lon="4.92061">
        <ele>223</ele>
        <time>2015-10-19T23:04:41Z</time>
      </trkpt>
      <trkpt lat="44.43019" lon="4.92083">
        <ele>223</ele>
        <time>2015-10-19T23:06:41Z</time>
      </trkpt>
      <trkpt lat="44.43024" lon="4.92105">
        <ele>223</ele>
        <time>2015-10-19T23:08:41Z</time>
      </trkpt>
      <trkpt lat="44.43027" lon="4.92126">
        <ele>222</ele>
        <time>2015-10-19T23:10:41Z</time>
      </trkpt>
      <trkpt lat="44.43026" lon="4.92139">
        <ele>222</ele>
        <time>2015-10-19T23:12:41Z</time>
      </trkpt>
      <trkpt lat="44.43025" lon="4.92156">
        <ele>222</ele>
        <time>2015-10-19T23:14:41Z</time>
      </trkpt>
      <trkpt lat="44.4302" lon="4.92175">
        <ele>222</ele>
        <time>2015-10-19T23:16:41Z</time>
      </trkpt>
      <trkpt lat="44.43013" lon="4.92198">
        <ele>224</ele>
        <time>2015-10-19T23:18:41Z</time>
      </trkpt>
      <trkpt lat="44.43007" lon="4.92219">
        <ele>225</ele>
        <time>2015-10-19T23:20:41Z</time>
      </trkpt>
      <trkpt lat="44.43006" lon="4.9223">
        <ele>225</ele>
        <time>2015-10-19T23:22:41Z</time>
      </trkpt>
      <trkpt lat="44.43003" lon="4.92231">
        <ele>225</ele>
        <time>2015-10-19T23:24:41Z</time>
      </trkpt>
      <trkpt lat="44.43003" lon="4.92233">
        <ele>225</ele>
        <time>2015-10-19T23:26:41Z</time>
      </trkpt>
      <trkpt lat="44.43002" lon="4.92236">
        <ele>225</ele>
        <time>2015-10-19T23:28:41Z</time>
      </trkpt>
      <trkpt lat="44.42999" lon="4.92253">
        <ele>226</ele>
        <time>2015-10-19T23:30:41Z</time>
      </trkpt>
      <trkpt lat="44.42995" lon="4.92268">
        <ele>228</ele>
        <time>2015-10-19T23:32:41Z</time>
      </trkpt>
      <trkpt lat="44.42998" lon="4.92283">
        <ele>229</ele>
        <time>2015-10-19T23:34:41Z</time>
      </trkpt>
      <trkpt lat="44.42991" lon="4.92281">
        <ele>230</ele>
        <time>2015-10-19T23:36:41Z</time>
      </trkpt>
      <trkpt lat="44.42982" lon="4.92273">
        <ele>230</ele>
        <time>2015-10-19T23:38:41Z</time>
      </trkpt>
      <trkpt lat="44.4297" lon="4.92261">
        <ele>229</ele>
        <time>2015-10-19T23:40:41Z</time>
      </trkpt>
      <trkpt lat="44.42947" lon="4.92234">
        <ele>227</ele>
        <time>2015-10-19T23:42:41Z</time>
      </trkpt>
      <trkpt lat="44.42935" lon="4.92224">
        <ele>227</ele>
        <time>2015-10-19T23:44:41Z</time>
      </trkpt>
      <trkpt lat="44.42924" lon="4.92214">
        <ele>226</ele>
        <time>2015-10-19T23:46:41Z</time>
      </trkpt>
      <trkpt lat="44.42912" lon="4.92198">
        <ele>224</ele>
        <time>2015-10-19T23:48:41Z</time>
      </trkpt>
      <trkpt lat="44.42901" lon="4.9219">
        <ele>223</ele>
        <time>2015-10-19T23:50:41Z</time>
      </trkpt>
      <trkpt lat="44.42893" lon="4.9218">
        <ele>222</ele>
        <time>2015-10-19T23:52:41Z</time>
      </trkpt>
      <trkpt lat="44.42888" lon="4.92176">
        <ele>222</ele>
        <time>2015-10-19T23:54:41Z</time>
      </trkpt>
      <trkpt lat="44.42888" lon="4.92174">
        <ele>221</ele>
        <time>2015-10-19T23:56:41Z</time>
      </trkpt>
      <trkpt lat="44.42885" lon="4.92178">
        <ele>222</ele>
        <time>2015-10-19T23:58:41Z</time>
      </trkpt>
      <trkpt lat="44.42885" lon="4.92177">
        <ele>222</ele>
        <time>2015-10-20T00:00:41Z</time>
      </trkpt>
      <trkpt lat="44.42885" lon="4.92176">
        <ele>222</ele>
        <time>2015-10-20T00:02:41Z</time>
      </trkpt>
      <trkpt lat="44.42884" lon="4.92178">
        <ele>222</ele>
        <time>2015-10-20T00:04:41Z</time>
      </trkpt>
      <trkpt lat="44.42886" lon="4.92181">
        <ele>223</ele>
        <time>2015-10-20T00:06:41Z</time>
      </trkpt>
      <trkpt lat="44.42884" lon="4.92181">
        <ele>223</ele>
        <time>2015-10-20T00:08:41Z</time>
      </trkpt>
      <trkpt lat="44.42882" lon="4.92184">
        <ele>223</ele>
        <time>2015-10-20T00:10:41Z</time>
      </trkpt>
      <trkpt lat="44.42883" lon="4.92181">
        <ele>223</ele>
        <time>2015-10-20T00:12:41Z</time>
      </trkpt>
      <trkpt lat="44.42882" lon="4.92181">
        <ele>223</ele>
        <time>2015-10-20T00:14:41Z</time>
      </trkpt>
      <trkpt lat="44.42882" lon="4.92182">
        <ele>223</ele>
        <time>2015-10-20T00:16:41Z</time>
      </trkpt>
      <trkpt lat="44.42882" lon="4.92181">
        <ele>223</ele>
        <time>2015-10-20T00:18:41Z</time>
      </trkpt>
      <trkpt lat="44.4288" lon="4.9218">
        <ele>223</ele>
        <time>2015-10-20T00:20:41Z</time>
      </trkpt>
      <trkpt lat="44.42881" lon="4.92181">
        <ele>223</ele>
        <time>2015-10-20T00:22:41Z</time>
      </trkpt>
      <trkpt lat="44.42885" lon="4.92182">
        <ele>223</ele>
        <time>2015-10-20T00:24:41Z</time>
      </trkpt>
      <trkpt lat="44.42885" lon="4.92184">
        <ele>223</ele>
        <time>2015-10-20T00:26:41Z</time>
      </trkpt>
      <trkpt lat="44.42887" lon="4.92181">
        <ele>222</ele>
        <time>2015-10-20T00:28:41Z</time>
      </trkpt>
      <trkpt lat="44.42886" lon="4.9218">
        <ele>222</ele>
        <time>2015-10-20T00:30:41Z</time>
      </trkpt>
      <trkpt lat="44.42884" lon="4.92182">
        <ele>223</ele>
        <time>2015-10-20T00:32:41Z</time>
      </trkpt>
      <trkpt lat="44.42884" lon="4.92179">
        <ele>222</ele>
        <time>2015-10-20T00:34:41Z</time>
      </trkpt>
      <trkpt lat="44.42885" lon="4.92178">
        <ele>222</ele>
        <time>2015-10-20T00:36:41Z</time>
      </trkpt>
      <trkpt lat="44.42884" lon="4.92179">
        <ele>222</ele>
        <time>2015-10-20T00:38:41Z</time>
      </trkpt>
      <trkpt lat="44.42884" lon="4.92182">
        <ele>223</ele>
        <time>2015-10-20T00:40:41Z</time>
      </trkpt>
      <trkpt lat="44.42883" lon="4.92184">
        <ele>223</ele>
        <time>2015-10-20T00:42:41Z</time>
      </trkpt>
      <trkpt lat="44.4289" lon="4.92185">
        <ele>223</ele>
        <time>2015-10-20T00:44:41Z</time>
      </trkpt>
      <trkpt lat="44.42894" lon="4.92186">
        <ele>223</ele>
        <time>2015-10-20T00:46:41Z</time>
      </trkpt>
      <trkpt lat="44.42896" lon="4.92189">
        <ele>223</ele>
        <time>2015-10-20T00:48:41Z</time>
      </trkpt>
      <trkpt lat="44.42916" lon="4.92207">
        <ele>225</ele>
        <time>2015-10-20T00:50:41Z</time>
      </trkpt>
      <trkpt lat="44.42931" lon="4.92222">
        <ele>227</ele>
        <time>2015-10-20T00:52:41Z</time>
      </trkpt>
      <trkpt lat="44.42943" lon="4.92232">
        <ele>227</ele>
        <time>2015-10-20T00:54:41Z</time>
      </trkpt>
      <trkpt lat="44.42948" lon="4.92239">
        <ele>228</ele>
        <time>2015-10-20T00:56:41Z</time>
      </trkpt>
      <trkpt lat="44.42957" lon="4.92251">
        <ele>229</ele>
        <time>2015-10-20T00:58:41Z</time>
      </trkpt>
      <trkpt lat="44.42966" lon="4.92259">
        <ele>229</ele>
        <time>2015-10-20T01:00:41Z</time>
      </trkpt>
      <trkpt lat="44.4298" lon="4.92275">
        <ele>230</ele>
        <time>2015-10-20T01:02:41Z</time>
      </trkpt>
      <trkpt lat="44.42993" lon="4.92283">
        <ele>230</ele>
        <time>2015-10-20T01:04:41Z</time>
      </trkpt>
      <trkpt lat="44.43003" lon="4.92296">
        <ele>230</ele>
        <time>2015-10-20T01:06:41Z</time>
      </trkpt>
      <trkpt lat="44.43015" lon="4.92308">
        <ele>231</ele>
        <time>2015-10-20T01:08:41Z</time>
      </trkpt>
      <trkpt lat="44.43026" lon="4.92316">
        <ele>231</ele>
        <time>2015-10-20T01:10:41Z</time>
      </trkpt>
      <trkpt lat="44.43035" lon="4.92328">
        <ele>232</ele>
        <time>2015-10-20T01:12:41Z</time>
      </trkpt>
      <trkpt lat="44.43044" lon="4.92336">
        <ele>232</ele>
        <time>2015-10-20T01:14:41Z</time>
      </trkpt>
      <trkpt lat="44.43057" lon="4.9235">
        <ele>233</ele>
        <time>2015-10-20T01:16:41Z</time>
      </trkpt>
      <trkpt lat="44.43076" lon="4.92376">
        <ele>233</ele>
        <time>2015-10-20T01:18:41Z</time>
      </trkpt>
      <trkpt lat="44.43078" lon="4.9238">
        <ele>233</ele>
        <time>2015-10-20T01:20:41Z</time>
      </trkpt>
      <trkpt lat="44.43079" lon="4.92406">
        <ele>234</ele>
        <time>2015-10-20T01:22:41Z</time>
      </trkpt>
      <trkpt lat="44.43078" lon="4.92426">
        <ele>235</ele>
        <time>2015-10-20T01:24:41Z</time>
      </trkpt>
      <trkpt lat="44.4308" lon="4.92433">
        <ele>235</ele>
        <time>2015-10-20T01:26:41Z</time>
      </trkpt>
      <trkpt lat="44.43082" lon="4.92441">
        <ele>235</ele>
        <time>2015-10-20T01:28:41Z</time>
      </trkpt>
      <trkpt lat="44.43079" lon="4.92465">
        <ele>236</ele>
        <time>2015-10-20T01:30:41Z</time>
      </trkpt>
      <trkpt lat="44.43074" lon="4.92487">
        <ele>236</ele>
        <time>2015-10-20T01:32:41Z</time>
      </trkpt>
      <trkpt lat="44.43071" lon="4.92509">
        <ele>237</ele>
        <time>2015-10-20T01:34:41Z</time>
      </trkpt>
      <trkpt lat="44.4307" lon="4.92526">
        <ele>237</ele>
        <time>2015-10-20T01:36:41Z</time>
      </trkpt>
      <trkpt lat="44.43069" lon="4.92541">
        <ele>237</ele>
        <time>2015-10-20T01:38:41Z</time>
      </trkpt>
      <trkpt lat="44.43068" lon="4.92565">
        <ele>237</ele>
        <time>2015-10-20T01:40:41Z</time>
      </trkpt>
      <trkpt lat="44.43068" lon="4.92566">
        <ele>237</ele>
        <time>2015-10-20T01:42:41Z</time>
      </trkpt>
      <trkpt lat="44.43067" lon="4.92573">
        <ele>237</ele>
        <time>2015-10-20T01:44:41Z</time>
      </trkpt>
      <trkpt lat="44.43067" lon="4.92577">
        <ele>237</ele>
        <time>2015-10-20T01:46:41Z</time>
      </trkpt>
      <trkpt lat="44.43059" lon="4.92641">
        <ele>238</ele>
        <time>2015-10-20T01:48:41Z</time>
      </trkpt>
      <trkpt lat="44.43056" lon="4.92664">
        <ele>238</ele>
        <time>2015-10-20T01:50:41Z</time>
      </trkpt>
      <trkpt lat="44.43054" lon="4.92684">
        <ele>238</ele>
        <time>2015-10-20T01:52:41Z</time>
      </trkpt>
      <trkpt lat="44.43052" lon="4.92703">
        <ele>238</ele>
        <time>2015-10-20T01:54:41Z</time>
      </trkpt>
      <trkpt lat="44.43051" lon="4.92727">
        <ele>237</ele>
        <time>2015-10-20T01:56:41Z</time>
      </trkpt>
      <trkpt lat="44.43051" lon="4.92729">
        <ele>237</ele>
        <time>2015-10-20T01:58:41Z</time>
      </trkpt>
      <trkpt lat="44.43049" lon="4.92757">
        <ele>237</ele>
        <time>2015-10-20T02:00:41Z</time>
      </trkpt>
      <trkpt lat="44.4305" lon="4.92785">
        <ele>237</ele>
        <time>2015-10-20T02:02:41Z</time>
      </trkpt>
      <trkpt lat="44.43051" lon="4.92812">
        <ele>238</ele>
        <time>2015-10-20T02:04:41Z</time>
      </trkpt>
      <trkpt lat="44.43054" lon="4.92861">
        <ele>238</ele>
        <time>2015-10-20T02:06:41Z</time>
      </trkpt>
      <trkpt lat="44.43054" lon="4.9288">
        <ele>239</ele>
        <time>2015-10-20T02:08:41Z</time>
      </trkpt>
      <trkpt lat="44.43052" lon="4.92883">
        <ele>239</ele>
        <time>2015-10-20T02:10:41Z</time>
      </trkpt>
      <trkpt lat="44.43055" lon="4.92887">
        <ele>239</ele>
        <time>2015-10-20T02:12:41Z</time>
      </trkpt>
      <trkpt lat="44.43054" lon="4.929">
        <ele>240</ele>
        <time>2015-10-20T02:14:41Z</time>
      </trkpt>
      <trkpt lat="44.43054" lon="4.92903">
        <ele>240</ele>
        <time>2015-10-20T02:16:41Z</time>
      </trkpt>
      <trkpt lat="44.43057" lon="4.92905">
        <ele>239</ele>
        <time>2015-10-20T02:18:41Z</time>
      </trkpt>
      <trkpt lat="44.43055" lon="4.92923">
        <ele>240</ele>
        <time>2015-10-20T02:20:41Z</time>
      </trkpt>
      <trkpt lat="44.43055" lon="4.9294">
        <ele>240</ele>
        <time>2015-10-20T02:22:41Z</time>
      </trkpt>
      <trkpt lat="44.43054" lon="4.92964">
        <ele>241</ele>
        <time>2015-10-20T02:24:41Z</time>
      </trkpt>
      <trkpt lat="44.43053" lon="4.92987">
        <ele>241</ele>
        <time>2015-10-20T02:26:41Z</time>
      </trkpt>
      <trkpt lat="44.43053" lon="4.92995">
        <ele>241</ele>
        <time>2015-10-20T02:28:41Z</time>
      </trkpt>
      <trkpt lat="44.43051" lon="4.93039">
        <ele>241</ele>
        <time>2015-10-20T02:30:41Z</time>
      </trkpt>
      <trkpt lat="44.4305" lon="4.93054">
        <ele>241</ele>
        <time>2015-10-20T02:32:41Z</time>
      </trkpt>
      <trkpt lat="44.43048" lon="4.93064">
        <ele>241</ele>
        <time>2015-10-20T02:34:41Z</time>
      </trkpt>
      <trkpt lat="44.43041" lon="4.93074">
        <ele>242</ele>
        <time>2015-10-20T02:36:41Z</time>
      </trkpt>
      <trkpt lat="44.43032" lon="4.93085">
        <ele>242</ele>
        <time>2015-10-20T02:38:41Z</time>
      </trkpt>
      <trkpt lat="44.43025" lon="4.93098">
        <ele>243</ele>
        <time>2015-10-20T02:40:41Z</time>
      </trkpt>
      <trkpt lat="44.43021" lon="4.93105">
        <ele>243</ele>
        <time>2015-10-20T02:42:41Z</time>
      </trkpt>
      <trkpt lat="44.43014" lon="4.93121">
        <ele>242</ele>
        <time>2015-10-20T02:44:41Z</time>
      </trkpt>
      <trkpt lat="44.43009" lon="4.9314">
        <ele>241</ele>
        <time>2015-10-20T02:46:41Z</time>
      </trkpt>
      <trkpt lat="44.43007" lon="4.93143">
        <ele>241</ele>
        <time>2015-10-20T02:48:41Z</time>
      </trkpt>
      <trkpt lat="44.43001" lon="4.9315">
        <ele>241</ele>
        <time>2015-10-20T02:50:41Z</time>
      </trkpt>
      <trkpt lat="44.42992" lon="4.93164">
        <ele>241</ele>
        <time>2015-10-20T02:52:41Z</time>
      </trkpt>
      <trkpt lat="44.42975" lon="4.93188">
        <ele>242</ele>
        <time>2015-10-20T02:54:41Z</time>
      </trkpt>
      <trkpt lat="44.4295" lon="4.93206">
        <ele>243</ele>
        <time>2015-10-20T02:56:41Z</time>
      </trkpt>
      <trkpt lat="44.42921" lon="4.93221">
        <ele>242</ele>
        <time>2015-10-20T02:58:41Z</time>
      </trkpt>
      <trkpt lat="44.42909" lon="4.93226">
        <ele>241</ele>
        <time>2015-10-20T03:00:41Z</time>
      </trkpt>
      <trkpt lat="44.42893" lon="4.93229">
        <ele>239</ele>
        <time>2015-10-20T03:02:41Z</time>
      </trkpt>
      <trkpt lat="44.42882" lon="4.93223">
        <ele>240</ele>
        <time>2015-10-20T03:04:41Z</time>
      </trkpt>
      <trkpt lat="44.4287" lon="4.93215">
        <ele>240</ele>
        <time>2015-10-20T03:06:41Z</time>
      </trkpt>
      <trkpt lat="44.42855" lon="4.93207">
        <ele>241</ele>
        <time>2015-10-20T03:08:41Z</time>
      </trkpt>
      <trkpt lat="44.42851" lon="4.93206">
        <ele>241</ele>
        <time>2015-10-20T03:10:41Z</time>
      </trkpt>
      <trkpt lat="44.42842" lon="4.93201">
        <ele>241</ele>
        <time>2015-10-20T03:12:41Z</time>
      </trkpt>
      <trkpt lat="44.42828" lon="4.93185">
        <ele>243</ele>
        <time>2015-10-20T03:14:41Z</time>
      </trkpt>
      <trkpt lat="44.42806" lon="4.93156">
        <ele>244</ele>
        <time>2015-10-20T03:16:41Z</time>
      </trkpt>
      <trkpt lat="44.42794" lon="4.93143">
        <ele>244</ele>
        <time>2015-10-20T03:18:41Z</time>
      </trkpt>
      <trkpt lat="44.42783" lon="4.93133">
        <ele>244</ele>
        <time>2015-10-20T03:20:41Z</time>
      </trkpt>
      <trkpt lat="44.42762" lon="4.93117">
        <ele>242</ele>
        <time>2015-10-20T03:22:41Z</time>
      </trkpt>
      <trkpt lat="44.42751" lon="4.93107">
        <ele>242</ele>
        <time>2015-10-20T03:24:41Z</time>
      </trkpt>
      <trkpt lat="44.42736" lon="4.93094">
        <ele>242</ele>
        <time>2015-10-20T03:26:41Z</time>
      </trkpt>
      <trkpt lat="44.42728" lon="4.93086">
        <ele>243</ele>
        <time>2015-10-20T03:28:41Z</time>
      </trkpt>
      <trkpt lat="44.4272" lon="4.93073">
        <ele>243</ele>
        <time>2015-10-20T03:30:41Z</time>
      </trkpt>
      <trkpt lat="44.42704" lon="4.93059">
        <ele>243</ele>
        <time>2015-10-20T03:32:41Z</time>
      </trkpt>
      <trkpt lat="44.42689" lon="4.9305">
        <ele>242</ele>
        <time>2015-10-20T03:34:41Z</time>
      </trkpt>
      <trkpt lat="44.42681" lon="4.93041">
        <ele>242</ele>
        <time>2015-10-20T03:36:41Z</time>
      </trkpt>
      <trkpt lat="44.42666" lon="4.93034">
        <ele>241</ele>
        <time>2015-10-20T03:38:41Z</time>
      </trkpt>
      <trkpt lat="44.42653" lon="4.9303">
        <ele>240</ele>
        <time>2015-10-20T03:40:41Z</time>
      </trkpt>
      <trkpt lat="44.42644" lon="4.93025">
        <ele>240</ele>
        <time>2015-10-20T03:42:41Z</time>
      </trkpt>
      <trkpt lat="44.42639" lon="4.93026">
        <ele>240</ele>
        <time>2015-10-20T03:44:41Z</time>
      </trkpt>
      <trkpt lat="44.42627" lon="4.93022">
        <ele>239</ele>
        <time>2015-10-20T03:46:41Z</time>
      </trkpt>
      <trkpt lat="44.42626" lon="4.9302">
        <ele>239</ele>
        <time>2015-10-20T03:48:41Z</time>
      </trkpt>
      <trkpt lat="44.42612" lon="4.93013">
        <ele>238</ele>
        <time>2015-10-20T03:50:41Z</time>
      </trkpt>
      <trkpt lat="44.42596" lon="4.93011">
        <ele>237</ele>
        <time>2015-10-20T03:52:41Z</time>
      </trkpt>
      <trkpt lat="44.42584" lon="4.93005">
        <ele>237</ele>
        <time>2015-10-20T03:54:41Z</time>
      </trkpt>
      <trkpt lat="44.4257" lon="4.92999">
        <ele>237</ele>
        <time>2015-10-20T03:56:41Z</time>
      </trkpt>
      <trkpt lat="44.42571" lon="4.92996">
        <ele>237</ele>
        <time>2015-10-20T03:58:41Z</time>
      </trkpt>
      <trkpt lat="44.42572" lon="4.92994">
        <ele>237</ele>
        <time>2015-10-20T04:00:41Z</time>
      </trkpt>
      <trkpt lat="44.42572" lon="4.92995">
        <ele>237</ele>
        <time>2015-10-20T04:02:41Z</time>
      </trkpt>
      <trkpt lat="44.42569" lon="4.92994">
        <ele>237</ele>
        <time>2015-10-20T04:04:41Z</time>
      </trkpt>
      <trkpt lat="44.42558" lon="4.92997">
        <ele>236</ele>
        <time>2015-10-20T04:06:41Z</time>
      </trkpt>
      <trkpt lat="44.42549" lon="4.92998">
        <ele>236</ele>
        <time>2015-10-20T04:08:41Z</time>
      </trkpt>
      <trkpt lat="44.42539" lon="4.92999">
        <ele>236</ele>
        <time>2015-10-20T04:10:41Z</time>
      </trkpt>
      <trkpt lat="44.4253" lon="4.93001">
        <ele>235</ele>
        <time>2015-10-20T04:12:41Z</time>
      </trkpt>
      <trkpt lat="44.42522" lon="4.93002">
        <ele>235</ele>
        <time>2015-10-20T04:14:41Z</time>
      </trkpt>
      <trkpt lat="44.42519" lon="4.92998">
        <ele>235</ele>
        <time>2015-10-20T04:16:41Z</time>
      </trkpt>
      <trkpt lat="44.42514" lon="4.92986">
        <ele>236</ele>
        <time>2015-10-20T04:18:41Z</time>
      </trkpt>
      <trkpt lat="44.42511" lon="4.92973">
        <ele>237</ele>
        <time>2015-10-20T04:20:41Z</time>
      </trkpt>
      <trkpt lat="44.42512" lon="4.92971">
        <ele>237</ele>
        <time>2015-10-20T04:22:41Z</time>
      </trkpt>
      <trkpt lat="44.42509" lon="4.92968">
        <ele>237</ele>
        <time>2015-10-20T04:24:41Z</time>
      </trkpt>
      <trkpt lat="44.42504" lon="4.92954">
        <ele>238</ele>
        <time>2015-10-20T04:26:41Z</time>
      </trkpt>
      <trkpt lat="44.42501" lon="4.92945">
        <ele>238</ele>
        <time>2015-10-20T04:28:41Z</time>
      </trkpt>
      <trkpt lat="44.42499" lon="4.92939">
        <ele>238</ele>
        <time>2015-10-20T04:30:41Z</time>
      </trkpt>
      <trkpt lat="44.42495" lon="4.92936">
        <ele>238</ele>
        <time>2015-10-20T04:32:41Z</time>
      </trkpt>
      <trkpt lat="44.42496" lon="4.92927">
        <ele>239</ele>
        <time>2015-10-20T04:34:41Z</time>
      </trkpt>
      <trkpt lat="44.42499" lon="4.92907">
        <ele>240</ele>
        <time>2015-10-20T04:36:41Z</time>
      </trkpt>
      <trkpt lat="44.42507" lon="4.9289">
        <ele>241</ele>
        <time>2015-10-20T04:38:41Z</time>
      </trkpt>
      <trkpt lat="44.42508" lon="4.9288">
        <ele>241</ele>
        <time>2015-10-20T04:40:41Z</time>
      </trkpt>
      <trkpt lat="44.42508" lon="4.92878">
        <ele>241</ele>
        <time>2015-10-20T04:42:41Z</time>
      </trkpt>
      <trkpt lat="44.42513" lon="4.9287">
        <ele>241</ele>
        <time>2015-10-20T04:44:41Z</time>
      </trkpt>
      <trkpt lat="44.42515" lon="4.92864">
        <ele>242</ele>
        <time>2015-10-20T04:46:41Z</time>
      </trkpt>
      <trkpt lat="44.42519" lon="4.92855">
        <ele>242</ele>
        <time>2015-10-20T04:48:41Z</time>
      </trkpt>
      <trkpt lat="44.4253" lon="4.92835">
        <ele>244</ele>
        <time>2015-10-20T04:50:41Z</time>
      </trkpt>
      <trkpt lat="44.42535" lon="4.92819">
        <ele>244</ele>
        <time>2015-10-20T04:52:41Z</time>
      </trkpt>
      <trkpt lat="44.42535" lon="4.92812">
        <ele>244</ele>
        <time>2015-10-20T04:54:41Z</time>
      </trkpt>
      <trkpt lat="44.42539" lon="4.92805">
        <ele>245</ele>
        <time>2015-10-20T04:56:41Z</time>
      </trkpt>
      <trkpt lat="44.42541" lon="4.928">
        <ele>245</ele>
        <time>2015-10-20T04:58:41Z</time>
      </trkpt>
      <trkpt lat="44.42545" lon="4.92781">
        <ele>246</ele>
        <time>2015-10-20T05:00:41Z</time>
      </trkpt>
      <trkpt lat="44.42544" lon="4.92769">
        <ele>246</ele>
        <time>2015-10-20T05:02:41Z</time>
      </trkpt>
      <trkpt lat="44.42545" lon="4.92757">
        <ele>246</ele>
        <time>2015-10-20T05:04:41Z</time>
      </trkpt>
      <trkpt lat="44.42544" lon="4.9275">
        <ele>246</ele>
        <time>2015-10-20T05:06:41Z</time>
      </trkpt>
      <trkpt lat="44.42544" lon="4.9275">
        <ele>246</ele>
        <time>2015-10-20T05:08:41Z</time>
      </trkpt>
      <trkpt lat="44.42546" lon="4.92719">
        <ele>247</ele>
        <time>2015-10-20T05:10:41Z</time>
      </trkpt>
      <trkpt lat="44.42546" lon="4.92706">
        <ele>247</ele>
        <time>2015-10-20T05:12:41Z</time>
      </trkpt>
      <trkpt lat="44.42545" lon="4.92703">
        <ele>247</ele>
        <time>2015-10-20T05:14:41Z</time>
      </trkpt>
      <trkpt lat="44.42542" lon="4.92701">
        <ele>247</ele>
        <time>2015-10-20T05:16:41Z</time>
      </trkpt>
      <trkpt lat="44.42542" lon="4.92701">
        <ele>247</ele>
        <time>2015-10-20T05:18:41Z</time>
      </trkpt>
      <trkpt lat="44.42542" lon="4.92701">
        <ele>247</ele>
        <time>2015-10-20T05:20:41Z</time>
      </trkpt>
      <trkpt lat="44.42541" lon="4.92701">
        <ele>247</ele>
        <time>2015-10-20T05:22:41Z</time>
      </trkpt>
      <trkpt lat="44.42542" lon="4.927">
        <ele>247</ele>
        <time>2015-10-20T05:24:41Z</time>
      </trkpt>
      <trkpt lat="44.42543" lon="4.927">
        <ele>247</ele>
        <time>2015-10-20T05:26:41Z</time>
      </trkpt>
      <trkpt lat="44.42541" lon="4.92699">
        <ele>247</ele>
        <time>2015-10-20T05:28:41Z</time>
      </trkpt>
      <trkpt lat="44.42544" lon="4.92693">
        <ele>248</ele>
        <time>2015-10-20T05:30:41Z</time>
      </trkpt>
      <trkpt lat="44.42546" lon="4.92678">
        <ele>248</ele>
        <time>2015-10-20T05:32:41Z</time>
      </trkpt>
      <trkpt lat="44.4255" lon="4.92665">
        <ele>249</ele>
        <time>2015-10-20T05:34:41Z</time>
      </trkpt>
      <trkpt lat="44.42555" lon="4.92649">
        <ele>249</ele>
        <time>2015-10-20T05:36:41Z</time>
      </trkpt>
      <trkpt lat="44.42557" lon="4.92638">
        <ele>249</ele>
        <time>2015-10-20T05:38:41Z</time>
      </trkpt>
      <trkpt lat="44.42559" lon="4.92615">
        <ele>250</ele>
        <time>2015-10-20T05:40:41Z</time>
      </trkpt>
      <trkpt lat="44.42572" lon="4.92603">
        <ele>250</ele>
        <time>2015-10-20T05:42:41Z</time>
      </trkpt>
      <trkpt lat="44.42582" lon="4.92604">
        <ele>251</ele>
        <time>2015-10-20T05:44:41Z</time>
      </trkpt>
      <trkpt lat="44.42595" lon="4.92611">
        <ele>252</ele>
        <time>2015-10-20T05:46:41Z</time>
      </trkpt>
      <trkpt lat="44.426" lon="4.92613">
        <ele>252</ele>
        <time>2015-10-20T05:48:41Z</time>
      </trkpt>
      <trkpt lat="44.4261" lon="4.92615">
        <ele>253</ele>
        <time>2015-10-20T05:50:41Z</time>
      </trkpt>
      <trkpt lat="44.42617" lon="4.92614">
        <ele>254</ele>
        <time>2015-10-20T05:52:41Z</time>
      </trkpt>
      <trkpt lat="44.42626" lon="4.92607">
        <ele>255</ele>
        <time>2015-10-20T05:54:41Z</time>
      </trkpt>
      <trkpt lat="44.42639" lon="4.92606">
        <ele>256</ele>
        <time>2015-10-20T05:56:41Z</time>
      </trkpt>
      <trkpt lat="44.42644" lon="4.92608">
        <ele>256</ele>
        <time>2015-10-20T05:58:41Z</time>
      </trkpt>
      <trkpt lat="44.42654" lon="4.92608">
        <ele>257</ele>
        <time>2015-10-20T06:00:41Z</time>
      </trkpt>
      <trkpt lat="44.4266" lon="4.92603">
        <ele>258</ele>
        <time>2015-10-20T06:02:41Z</time>
      </trkpt>
      <trkpt lat="44.42663" lon="4.92594">
        <ele>258</ele>
        <time>2015-10-20T06:04:41Z</time>
      </trkpt>
      <trkpt lat="44.42663" lon="4.9259">
        <ele>258</ele>
        <time>2015-10-20T06:06:41Z</time>
      </trkpt>
      <trkpt lat="44.42662" lon="4.92587">
        <ele>258</ele>
        <time>2015-10-20T06:08:41Z</time>
      </trkpt>
      <trkpt lat="44.42664" lon="4.92555">
        <ele>258</ele>
        <time>2015-10-20T06:10:41Z</time>
      </trkpt>
      <trkpt lat="44.42665" lon="4.92544">
        <ele>258</ele>
        <time>2015-10-20T06:12:41Z</time>
      </trkpt>
      <trkpt lat="44.42669" lon="4.92533">
        <ele>258</ele>
        <time>2015-10-20T06:14:41Z</time>
      </trkpt>
      <trkpt lat="44.42684" lon="4.92524">
        <ele>259</ele>
        <time>2015-10-20T06:16:41Z</time>
      </trkpt>
      <trkpt lat="44.42699" lon="4.92516">
        <ele>260</ele>
        <time>2015-10-20T06:18:41Z</time>
      </trkpt>
      <trkpt lat="44.42703" lon="4.92509">
        <ele>261</ele>
        <time>2015-10-20T06:20:41Z</time>
      </trkpt>
      <trkpt lat="44.42713" lon="4.92502">
        <ele>261</ele>
        <time>2015-10-20T06:22:41Z</time>
      </trkpt>
      <trkpt lat="44.42729" lon="4.92497">
        <ele>263</ele>
        <time>2015-10-20T06:24:41Z</time>
      </trkpt>
      <trkpt lat="44.42741" lon="4.9249">
        <ele>264</ele>
        <time>2015-10-20T06:26:41Z</time>
      </trkpt>
      <trkpt lat="44.42753" lon="4.92481">
        <ele>265</ele>
        <time>2015-10-20T06:28:41Z</time>
      </trkpt>
      <trkpt lat="44.42764" lon="4.9247">
        <ele>267</ele>
        <time>2015-10-20T06:30:41Z</time>
      </trkpt>
      <trkpt lat="44.42772" lon="4.92455">
        <ele>267</ele>
        <time>2015-10-20T06:32:41Z</time>
      </trkpt>
      <trkpt lat="44.42778" lon="4.92441">
        <ele>268</ele>
        <time>2015-10-20T06:34:41Z</time>
      </trkpt>
      <trkpt lat="44.42782" lon="4.92428">
        <ele>268</ele>
        <time>2015-10-20T06:36:41Z</time>
      </trkpt>
      <trkpt lat="44.42789" lon="4.92416">
        <ele>269</ele>
        <time>2015-10-20T06:38:41Z</time>
      </trkpt>
      <trkpt lat="44.42809" lon="4.92403">
        <ele>269</ele>
        <time>2015-10-20T06:40:41Z</time>
      </trkpt>
      <trkpt lat="44.42819" lon="4.92398">
        <ele>270</ele>
        <time>2015-10-20T06:42:41Z</time>
      </trkpt>
      <trkpt lat="44.42826" lon="4.92399">
        <ele>271</ele>
        <time>2015-10-20T06:44:41Z</time>
      </trkpt>
      <trkpt lat="44.42828" lon="4.92398">
        <ele>271</ele>
        <time>2015-10-20T06:46:41Z</time>
      </trkpt>
      <trkpt lat="44.42846" lon="4.92403">
        <ele>271</ele>
        <time>2015-10-20T06:48:41Z</time>
      </trkpt>
      <trkpt lat="44.42858" lon="4.92403">
        <ele>270</ele>
        <time>2015-10-20T06:50:41Z</time>
      </trkpt>
      <trkpt lat="44.42869" lon="4.92407">
        <ele>270</ele>
        <time>2015-10-20T06:52:41Z</time>
      </trkpt>
      <trkpt lat="44.42879" lon="4.92405">
        <ele>268</ele>
        <time>2015-10-20T06:54:41Z</time>
      </trkpt>
      <trkpt lat="44.42881" lon="4.92403">
        <ele>268</ele>
        <time>2015-10-20T06:56:41Z</time>
      </trkpt>
      <trkpt lat="44.42884" lon="4.92397">
        <ele>266</ele>
        <time>2015-10-20T06:58:41Z</time>
      </trkpt>
      <trkpt lat="44.42883" lon="4.92394">
        <ele>266</ele>
        <time>2015-10-20T07:00:41Z</time>
      </trkpt>
      <trkpt lat="44.42886" lon="4.92392">
        <ele>265</ele>
        <time>2015-10-20T07:02:41Z</time>
      </trkpt>
      <trkpt lat="44.42893" lon="4.92393">
        <ele>265</ele>
        <time>2015-10-20T07:04:41Z</time>
      </trkpt>
      <trkpt lat="44.42896" lon="4.92389">
        <ele>264</ele>
        <time>2015-10-20T07:06:41Z</time>
      </trkpt>
      <trkpt lat="44.42897" lon="4.9239">
        <ele>264</ele>
        <time>2015-10-20T07:08:41Z</time>
      </trkpt>
      <trkpt lat="44.42897" lon="4.9239">
        <ele>264</ele>
        <time>2015-10-20T07:10:41Z</time>
      </trkpt>
      <trkpt lat="44.42896" lon="4.92389">
        <ele>264</ele>
        <time>2015-10-20T07:12:41Z</time>
      </trkpt>
      <trkpt lat="44.42896" lon="4.92391">
        <ele>264</ele>
        <time>2015-10-20T07:14:41Z</time>
      </trkpt>
      <trkpt lat="44.42898" lon="4.92392">
        <ele>264</ele>
        <time>2015-10-20T07:16:41Z</time>
      </trkpt>
      <trkpt lat="44.42897" lon="4.9239">
        <ele>264</ele>
        <time>2015-10-20T07:18:41Z</time>
      </trkpt>
      <trkpt lat="44.42897" lon="4.92391">
        <ele>264</ele>
        <time>2015-10-20T07:20:41Z</time>
      </trkpt>
      <trkpt lat="44.42893" lon="4.92391">
        <ele>264</ele>
        <time>2015-10-20T07:22:41Z</time>
      </trkpt>
      <trkpt lat="44.42893" lon="4.9239">
        <ele>264</ele>
        <time>2015-10-20T07:24:41Z</time>
      </trkpt>
      <trkpt lat="44.42891" lon="4.92392">
        <ele>265</ele>
        <time>2015-10-20T07:26:41Z</time>
      </trkpt>
      <trkpt lat="44.42891" lon="4.92392">
        <ele>265</ele>
        <time>2015-10-20T07:28:41Z</time>
      </trkpt>
      <trkpt lat="44.42891" lon="4.92391">
        <ele>264</ele>
        <time>2015-10-20T07:30:41Z</time>
      </trkpt>
      <trkpt lat="44.42891" lon="4.9239">
        <ele>264</ele>
        <time>2015-10-20T07:32:41Z</time>
      </trkpt>
      <trkpt lat="44.4289" lon="4.92391">
        <ele>265</ele>
        <time>2015-10-20T07:34:41Z</time>
      </trkpt>
      <trkpt lat="44.42882" lon="4.92398">
        <ele>267</ele>
        <time>2015-10-20T07:36:41Z</time>
      </trkpt>
      <trkpt lat="44.42875" lon="4.92403">
        <ele>268</ele>
        <time>2015-10-20T07:38:41Z</time>
      </trkpt>
      <trkpt lat="44.42859" lon="4.92403">
        <ele>270</ele>
        <time>2015-10-20T07:40:41Z</time>
      </trkpt>
      <trkpt lat="44.42847" lon="4.924">
        <ele>270</ele>
        <time>2015-10-20T07:42:41Z</time>
      </trkpt>
      <trkpt lat="44.42837" lon="4.92399">
        <ele>271</ele>
        <time>2015-10-20T07:44:41Z</time>
      </trkpt>
      <trkpt lat="44.42832" lon="4.92397">
        <ele>271</ele>
        <time>2015-10-20T07:46:41Z</time>
      </trkpt>
      <trkpt lat="44.42826" lon="4.92395">
        <ele>270</ele>
        <time>2015-10-20T07:48:41Z</time>
      </trkpt>
      <trkpt lat="44.4281" lon="4.92401">
        <ele>269</ele>
        <time>2015-10-20T07:50:41Z</time>
      </trkpt>
      <trkpt lat="44.42791" lon="4.92412">
        <ele>268</ele>
        <time>2015-10-20T07:52:41Z</time>
      </trkpt>
      <trkpt lat="44.42781" lon="4.92427">
        <ele>268</ele>
        <time>2015-10-20T07:54:41Z</time>
      </trkpt>
      <trkpt lat="44.42775" lon="4.92448">
        <ele>268</ele>
        <time>2015-10-20T07:56:41Z</time>
      </trkpt>
      <trkpt lat="44.4277" lon="4.9246">
        <ele>267</ele>
        <time>2015-10-20T07:58:41Z</time>
      </trkpt>
      <trkpt lat="44.42764" lon="4.92471">
        <ele>267</ele>
        <time>2015-10-20T08:00:41Z</time>
      </trkpt>
      <trkpt lat="44.42759" lon="4.92476">
        <ele>266</ele>
        <time>2015-10-20T08:02:41Z</time>
      </trkpt>
      <trkpt lat="44.42747" lon="4.92485">
        <ele>265</ele>
        <time>2015-10-20T08:04:41Z</time>
      </trkpt>
      <trkpt lat="44.42737" lon="4.92492">
        <ele>264</ele>
        <time>2015-10-20T08:06:41Z</time>
      </trkpt>
      <trkpt lat="44.42722" lon="4.92497">
        <ele>262</ele>
        <time>2015-10-20T08:08:41Z</time>
      </trkpt>
      <trkpt lat="44.42711" lon="4.92503">
        <ele>261</ele>
        <time>2015-10-20T08:10:41Z</time>
      </trkpt>
      <trkpt lat="44.42699" lon="4.92515">
        <ele>260</ele>
        <time>2015-10-20T08:12:41Z</time>
      </trkpt>
      <trkpt lat="44.42689" lon="4.92521">
        <ele>260</ele>
        <time>2015-10-20T08:14:41Z</time>
      </trkpt>
      <trkpt lat="44.42676" lon="4.92527">
        <ele>259</ele>
        <time>2015-10-20T08:16:41Z</time>
      </trkpt>
      <trkpt lat="44.42668" lon="4.92538">
        <ele>258</ele>
        <time>2015-10-20T08:18:41Z</time>
      </trkpt>
      <trkpt lat="44.42666" lon="4.92564">
        <ele>258</ele>
        <time>2015-10-20T08:20:41Z</time>
      </trkpt>
      <trkpt lat="44.42665" lon="4.92574">
        <ele>259</ele>
        <time>2015-10-20T08:22:41Z</time>
      </trkpt>
      <trkpt lat="44.42664" lon="4.92588">
        <ele>259</ele>
        <time>2015-10-20T08:24:41Z</time>
      </trkpt>
      <trkpt lat="44.42657" lon="4.92609">
        <ele>258</ele>
        <time>2015-10-20T08:26:41Z</time>
      </trkpt>
      <trkpt lat="44.4264" lon="4.92606">
        <ele>256</ele>
        <time>2015-10-20T08:28:41Z</time>
      </trkpt>
      <trkpt lat="44.42615" lon="4.92613">
        <ele>254</ele>
        <time>2015-10-20T08:30:41Z</time>
      </trkpt>
      <trkpt lat="44.4261" lon="4.92613">
        <ele>253</ele>
        <time>2015-10-20T08:32:41Z</time>
      </trkpt>
      <trkpt lat="44.42593" lon="4.92608">
        <ele>252</ele>
        <time>2015-10-20T08:34:41Z</time>
      </trkpt>
      <trkpt lat="44.42583" lon="4.92602">
        <ele>251</ele>
        <time>2015-10-20T08:36:41Z</time>
      </trkpt>
      <trkpt lat="44.4257" lon="4.92602">
        <ele>250</ele>
        <time>2015-10-20T08:38:41Z</time>
      </trkpt>
      <trkpt lat="44.42566" lon="4.92605">
        <ele>250</ele>
        <time>2015-10-20T08:40:41Z</time>
      </trkpt>
      <trkpt lat="44.42559" lon="4.92615">
        <ele>250</ele>
        <time>2015-10-20T08:42:41Z</time>
      </trkpt>
      <trkpt lat="44.4256" lon="4.92639">
        <ele>250</ele>
        <time>2015-10-20T08:44:41Z</time>
      </trkpt>
      <trkpt lat="44.42558" lon="4.92648">
        <ele>249</ele>
        <time>2015-10-20T08:46:41Z</time>
      </trkpt>
      <trkpt lat="44.42552" lon="4.92672">
        <ele>249</ele>
        <time>2015-10-20T08:48:41Z</time>
      </trkpt>
      <trkpt lat="44.42546" lon="4.92721">
        <ele>247</ele>
        <time>2015-10-20T08:50:41Z</time>
      </trkpt>
      <trkpt lat="44.42548" lon="4.92746">
        <ele>247</ele>
        <time>2015-10-20T08:52:41Z</time>
      </trkpt>
      <trkpt lat="44.42547" lon="4.92774">
        <ele>246</ele>
        <time>2015-10-20T08:54:41Z</time>
      </trkpt>
      <trkpt lat="44.42548" lon="4.9278">
        <ele>246</ele>
        <time>2015-10-20T08:56:41Z</time>
      </trkpt>
      <trkpt lat="44.42546" lon="4.928">
        <ele>246</ele>
        <time>2015-10-20T08:58:41Z</time>
      </trkpt>
      <trkpt lat="44.42539" lon="4.92821">
        <ele>245</ele>
        <time>2015-10-20T09:00:41Z</time>
      </trkpt>
      <trkpt lat="44.42534" lon="4.92838">
        <ele>244</ele>
        <time>2015-10-20T09:02:41Z</time>
      </trkpt>
      <trkpt lat="44.42531" lon="4.92848">
        <ele>244</ele>
        <time>2015-10-20T09:04:41Z</time>
      </trkpt>
      <trkpt lat="44.42518" lon="4.92865">
        <ele>242</ele>
        <time>2015-10-20T09:06:41Z</time>
      </trkpt>
      <trkpt lat="44.4251" lon="4.92884">
        <ele>241</ele>
        <time>2015-10-20T09:08:41Z</time>
      </trkpt>
      <trkpt lat="44.42503" lon="4.92904">
        <ele>240</ele>
        <time>2015-10-20T09:10:41Z</time>
      </trkpt>
      <trkpt lat="44.42498" lon="4.92928">
        <ele>239</ele>
        <time>2015-10-20T09:12:41Z</time>
      </trkpt>
      <trkpt lat="44.42499" lon="4.92936">
        <ele>239</ele>
        <time>2015-10-20T09:14:41Z</time>
      </trkpt>
      <trkpt lat="44.42507" lon="4.92957">
        <ele>238</ele>
        <time>2015-10-20T09:16:41Z</time>
      </trkpt>
      <trkpt lat="44.42515" lon="4.92978">
        <ele>236</ele>
        <time>2015-10-20T09:18:41Z</time>
      </trkpt>
      <trkpt lat="44.42515" lon="4.93">
        <ele>235</ele>
        <time>2015-10-20T09:20:41Z</time>
      </trkpt>
      <trkpt lat="44.42508" lon="4.93006">
        <ele>234</ele>
        <time>2015-10-20T09:22:41Z</time>
      </trkpt>
      <trkpt lat="44.42506" lon="4.93008">
        <ele>234</ele>
        <time>2015-10-20T09:24:41Z</time>
      </trkpt>
      <trkpt lat="44.42502" lon="4.93008">
        <ele>234</ele>
        <time>2015-10-20T09:26:41Z</time>
      </trkpt>
      <trkpt lat="44.42495" lon="4.93009">
        <ele>234</ele>
        <time>2015-10-20T09:28:41Z</time>
      </trkpt>
      <trkpt lat="44.4248" lon="4.93005">
        <ele>234</ele>
        <time>2015-10-20T09:30:41Z</time>
      </trkpt>
      <trkpt lat="44.4247" lon="4.92998">
        <ele>234</ele>
        <time>2015-10-20T09:32:41Z</time>
      </trkpt>
      <trkpt lat="44.42455" lon="4.92993">
        <ele>235</ele>
        <time>2015-10-20T09:34:41Z</time>
      </trkpt>
      <trkpt lat="44.42444" lon="4.92988">
        <ele>235</ele>
        <time>2015-10-20T09:36:41Z</time>
      </trkpt>
      <trkpt lat="44.42431" lon="4.92984">
        <ele>235</ele>
        <time>2015-10-20T09:38:41Z</time>
      </trkpt>
      <trkpt lat="44.42416" lon="4.92981">
        <ele>235</ele>
        <time>2015-10-20T09:40:41Z</time>
      </trkpt>
      <trkpt lat="44.42404" lon="4.92979">
        <ele>235</ele>
        <time>2015-10-20T09:42:41Z</time>
      </trkpt>
      <trkpt lat="44.4239" lon="4.92973">
        <ele>235</ele>
        <time>2015-10-20T09:44:41Z</time>
      </trkpt>
      <trkpt lat="44.42376" lon="4.92963">
        <ele>236</ele>
        <time>2015-10-20T09:46:41Z</time>
      </trkpt>
      <trkpt lat="44.42365" lon="4.92959">
        <ele>236</ele>
        <time>2015-10-20T09:48:41Z</time>
      </trkpt>
      <trkpt lat="44.42354" lon="4.92951">
        <ele>236</ele>
        <time>2015-10-20T09:50:41Z</time>
      </trkpt>
      <trkpt lat="44.42341" lon="4.92942">
        <ele>236</ele>
        <time>2015-10-20T09:52:41Z</time>
      </trkpt>
      <trkpt lat="44.42328" lon="4.92929">
        <ele>235</ele>
        <time>2015-10-20T09:54:41Z</time>
      </trkpt>
      <trkpt lat="44.42316" lon="4.9292">
        <ele>235</ele>
        <time>2015-10-20T09:56:41Z</time>
      </trkpt>
      <trkpt lat="44.42302" lon="4.92914">
        <ele>235</ele>
        <time>2015-10-20T09:58:41Z</time>
      </trkpt>
      <trkpt lat="44.42284" lon="4.92911">
        <ele>235</ele>
        <time>2015-10-20T10:00:41Z</time>
      </trkpt>
      <trkpt lat="44.4227" lon="4.92917">
        <ele>235</ele>
        <time>2015-10-20T10:02:41Z</time>
      </trkpt>
      <trkpt lat="44.42253" lon="4.92922">
        <ele>235</ele>
        <time>2015-10-20T10:04:41Z</time>
      </trkpt>
      <trkpt lat="44.42237" lon="4.92932">
        <ele>235</ele>
        <time>2015-10-20T10:06:41Z</time>
      </trkpt>
      <trkpt lat="44.42228" lon="4.92943">
        <ele>234</ele>
        <time>2015-10-20T10:08:41Z</time>
      </trkpt>
      <trkpt lat="44.42213" lon="4.92952">
        <ele>234</ele>
        <time>2015-10-20T10:10:41Z</time>
      </trkpt>
      <trkpt lat="44.42199" lon="4.92953">
        <ele>233</ele>
        <time>2015-10-20T10:12:41Z</time>
      </trkpt>
      <trkpt lat="44.42186" lon="4.92951">
        <ele>232</ele>
        <time>2015-10-20T10:14:41Z</time>
      </trkpt>
      <trkpt lat="44.4217" lon="4.92947">
        <ele>232</ele>
        <time>2015-10-20T10:16:41Z</time>
      </trkpt>
      <trkpt lat="44.42148" lon="4.92947">
        <ele>230</ele>
        <time>2015-10-20T10:18:41Z</time>
      </trkpt>
      <trkpt lat="44.42133" lon="4.92942">
        <ele>229</ele>
        <time>2015-10-20T10:20:41Z</time>
      </trkpt>
      <trkpt lat="44.42118" lon="4.92943">
        <ele>229</ele>
        <time>2015-10-20T10:22:41Z</time>
      </trkpt>
      <trkpt lat="44.42109" lon="4.9294">
        <ele>228</ele>
        <time>2015-10-20T10:24:41Z</time>
      </trkpt>
      <trkpt lat="44.42091" lon="4.92932">
        <ele>227</ele>
        <time>2015-10-20T10:26:41Z</time>
      </trkpt>
      <trkpt lat="44.42076" lon="4.92927">
        <ele>226</ele>
        <time>2015-10-20T10:28:41Z</time>
      </trkpt>
      <trkpt lat="44.42063" lon="4.92924">
        <ele>226</ele>
        <time>2015-10-20T10:30:41Z</time>
      </trkpt>
      <trkpt lat="44.42052" lon="4.9292">
        <ele>225</ele>
        <time>2015-10-20T10:32:41Z</time>
      </trkpt>
      <trkpt lat="44.42033" lon="4.92921">
        <ele>225</ele>
        <time>2015-10-20T10:34:41Z</time>
      </trkpt>
      <trkpt lat="44.42013" lon="4.92919">
        <ele>224</ele>
        <time>2015-10-20T10:36:41Z</time>
      </trkpt>
      <trkpt lat="44.42001" lon="4.92919">
        <ele>224</ele>
        <time>2015-10-20T10:38:41Z</time>
      </trkpt>
      <trkpt lat="44.41985" lon="4.92913">
        <ele>223</ele>
        <time>2015-10-20T10:40:41Z</time>
      </trkpt>
      <trkpt lat="44.41981" lon="4.92911">
        <ele>223</ele>
        <time>2015-10-20T10:42:41Z</time>
      </trkpt>
      <trkpt lat="44.41966" lon="4.9291">
        <ele>222</ele>
        <time>2015-10-20T10:44:41Z</time>
      </trkpt>
      <trkpt lat="44.41954" lon="4.92913">
        <ele>221</ele>
        <time>2015-10-20T10:46:41Z</time>
      </trkpt>
      <trkpt lat="44.41942" lon="4.92921">
        <ele>221</ele>
        <time>2015-10-20T10:48:41Z</time>
      </trkpt>
      <trkpt lat="44.41927" lon="4.92924">
        <ele>220</ele>
        <time>2015-10-20T10:50:41Z</time>
      </trkpt>
      <trkpt lat="44.41923" lon="4.92923">
        <ele>219</ele>
        <time>2015-10-20T10:52:41Z</time>
      </trkpt>
      <trkpt lat="44.4192" lon="4.92922">
        <ele>219</ele>
        <time>2015-10-20T10:54:41Z</time>
      </trkpt>
      <trkpt lat="44.41907" lon="4.92916">
        <ele>219</ele>
        <time>2015-10-20T10:56:41Z</time>
      </trkpt>
      <trkpt lat="44.4189" lon="4.92916">
        <ele>218</ele>
        <time>2015-10-20T10:58:41Z</time>
      </trkpt>
      <trkpt lat="44.41878" lon="4.92923">
        <ele>218</ele>
        <time>2015-10-20T11:00:41Z</time>
      </trkpt>
      <trkpt lat="44.41869" lon="4.92929">
        <ele>217</ele>
        <time>2015-10-20T11:02:41Z</time>
      </trkpt>
      <trkpt lat="44.41866" lon="4.92931">
        <ele>217</ele>
        <time>2015-10-20T11:04:41Z</time>
      </trkpt>
      <trkpt lat="44.41846" lon="4.92944">
        <ele>217</ele>
        <time>2015-10-20T11:06:41Z</time>
      </trkpt>
      <trkpt lat="44.4183" lon="4.9295">
        <ele>216</ele>
        <time>2015-10-20T11:08:41Z</time>
      </trkpt>
      <trkpt lat="44.41815" lon="4.92951">
        <ele>216</ele>
        <time>2015-10-20T11:10:41Z</time>
      </trkpt>
      <trkpt lat="44.4181" lon="4.92951">
        <ele>215</ele>
        <time>2015-10-20T11:12:41Z</time>
      </trkpt>
      <trkpt lat="44.41796" lon="4.92955">
        <ele>215</ele>
        <time>2015-10-20T11:14:41Z</time>
      </trkpt>
      <trkpt lat="44.41794" lon="4.92958">
        <ele>215</ele>
        <time>2015-10-20T11:16:41Z</time>
      </trkpt>
      <trkpt lat="44.41792" lon="4.92975">
        <ele>215</ele>
        <time>2015-10-20T11:18:41Z</time>
      </trkpt>
      <trkpt lat="44.41792" lon="4.92988">
        <ele>215</ele>
        <time>2015-10-20T11:20:41Z</time>
      </trkpt>
      <trkpt lat="44.41795" lon="4.93016">
        <ele>215</ele>
        <time>2015-10-20T11:22:41Z</time>
      </trkpt>
      <trkpt lat="44.41799" lon="4.93049">
        <ele>215</ele>
        <time>2015-10-20T11:24:41Z</time>
      </trkpt>
      <trkpt lat="44.41805" lon="4.93068">
        <ele>215</ele>
        <time>2015-10-20T11:26:41Z</time>
      </trkpt>
      <trkpt lat="44.41812" lon="4.93102">
        <ele>214</ele>
        <time>2015-10-20T11:28:41Z</time>
      </trkpt>
      <trkpt lat="44.41816" lon="4.93131">
        <ele>214</ele>
        <time>2015-10-20T11:30:41Z</time>
      </trkpt>
      <trkpt lat="44.4182" lon="4.9316">
        <ele>213</ele>
        <time>2015-10-20T11:32:41Z</time>
      </trkpt>
      <trkpt lat="44.41828" lon="4.93212">
        <ele>212</ele>
        <time>2015-10-20T11:34:41Z</time>
      </trkpt>
      <trkpt lat="44.4183" lon="4.93239">
        <ele>211</ele>
        <time>2015-10-20T11:36:41Z</time>
      </trkpt>
      <trkpt lat="44.41833" lon="4.93265">
        <ele>211</ele>
        <time>2015-10-20T11:38:41Z</time>
      </trkpt>
      <trkpt lat="44.41836" lon="4.93291">
        <ele>211</ele>
        <time>2015-10-20T11:40:41Z</time>
      </trkpt>
      <trkpt lat="44.41838" lon="4.93301">
        <ele>211</ele>
        <time>2015-10-20T11:42:41Z</time>
      </trkpt>
      <trkpt lat="44.4184" lon="4.93324">
        <ele>211</ele>
        <time>2015-10-20T11:44:41Z</time>
      </trkpt>
      <trkpt lat="44.41842" lon="4.93348">
        <ele>211</ele>
        <time>2015-10-20T11:46:41Z</time>
      </trkpt>
      <trkpt lat="44.41838" lon="4.93366">
        <ele>210</ele>
        <time>2015-10-20T11:48:41Z</time>
      </trkpt>
      <trkpt lat="44.41836" lon="4.93374">
        <ele>210</ele>
        <time>2015-10-20T11:50:41Z</time>
      </trkpt>
      <trkpt lat="44.41828" lon="4.93396">
        <ele>210</ele>
        <time>2015-10-20T11:52:41Z</time>
      </trkpt>
      <trkpt lat="44.41829" lon="4.93397">
        <ele>210</ele>
        <time>2015-10-20T11:54:41Z</time>
      </trkpt>
      <trkpt lat="44.41826" lon="4.93401">
        <ele>210</ele>
        <time>2015-10-20T11:56:41Z</time>
      </trkpt>
      <trkpt lat="44.41822" lon="4.93401">
        <ele>210</ele>
        <time>2015-10-20T11:58:41Z</time>
      </trkpt>
      <trkpt lat="44.41821" lon="4.93399">
        <ele>210</ele>
        <time>2015-10-20T12:00:41Z</time>
      </trkpt>
      <trkpt lat="44.4182" lon="4.93399">
        <ele>210</ele>
        <time>2015-10-20T12:02:41Z</time>
      </trkpt>
      <trkpt lat="44.41823" lon="4.93401">
        <ele>210</ele>
        <time>2015-10-20T12:04:41Z</time>
      </trkpt>
      <trkpt lat="44.41825" lon="4.93402">
        <ele>210</ele>
        <time>2015-10-20T12:06:41Z</time>
      </trkpt>
      <trkpt lat="44.41825" lon="4.93402">
        <ele>210</ele>
        <time>2015-10-20T12:08:41Z</time>
      </trkpt>
      <trkpt lat="44.41826" lon="4.93404">
        <ele>210</ele>
        <time>2015-10-20T12:10:41Z</time>
      </trkpt>
      <trkpt lat="44.41826" lon="4.93406">
        <ele>210</ele>
        <time>2015-10-20T12:12:41Z</time>
      </trkpt>
      <trkpt lat="44.41826" lon="4.93408">
        <ele>210</ele>
        <time>2015-10-20T12:14:41Z</time>
      </trkpt>
      <trkpt lat="44.41832" lon="4.9341">
        <ele>210</ele>
        <time>2015-10-20T12:16:41Z</time>
      </trkpt>
      <trkpt lat="44.41834" lon="4.93409">
        <ele>210</ele>
        <time>2015-10-20T12:18:41Z</time>
      </trkpt>
      <trkpt lat="44.41836" lon="4.93408">
        <ele>210</ele>
        <time>2015-10-20T12:20:41Z</time>
      </trkpt>
      <trkpt lat="44.41836" lon="4.93406">
        <ele>210</ele>
        <time>2015-10-20T12:22:41Z</time>
      </trkpt>
      <trkpt lat="44.41833" lon="4.93407">
        <ele>210</ele>
        <time>2015-10-20T12:24:41Z</time>
      </trkpt>
      <trkpt lat="44.41836" lon="4.93409">
        <ele>210</ele>
        <time>2015-10-20T12:26:41Z</time>
      </trkpt>
      <trkpt lat="44.4184" lon="4.93408">
        <ele>210</ele>
        <time>2015-10-20T12:28:41Z</time>
      </trkpt>
      <trkpt lat="44.41835" lon="4.93407">
        <ele>210</ele>
        <time>2015-10-20T12:30:41Z</time>
      </trkpt>
      <trkpt lat="44.41836" lon="4.93406">
        <ele>210</ele>
        <time>2015-10-20T12:32:41Z</time>
      </trkpt>
      <trkpt lat="44.41834" lon="4.93408">
        <ele>210</ele>
        <time>2015-10-20T12:34:41Z</time>
      </trkpt>
      <trkpt lat="44.41835" lon="4.93409">
        <ele>210</ele>
        <time>2015-10-20T12:36:41Z</time>
      </trkpt>
      <trkpt lat="44.41838" lon="4.93408">
        <ele>210</ele>
        <time>2015-10-20T12:38:41Z</time>
      </trkpt>
      <trkpt lat="44.4184" lon="4.93407">
        <ele>210</ele>
        <time>2015-10-20T12:40:41Z</time>
      </trkpt>
      <trkpt lat="44.41839" lon="4.93408">
        <ele>210</ele>
        <time>2015-10-20T12:42:41Z</time>
      </trkpt>
      <trkpt lat="44.4184" lon="4.93408">
        <ele>210</ele>
        <time>2015-10-20T12:44:41Z</time>
      </trkpt>
      <trkpt lat="44.41841" lon="4.93408">
        <ele>210</ele>
        <time>2015-10-20T12:46:41Z</time>
      </trkpt>
      <trkpt lat="44.4184" lon="4.93406">
        <ele>210</ele>
        <time>2015-10-20T12:48:41Z</time>
      </trkpt>
      <trkpt lat="44.41838" lon="4.93405">
        <ele>210</ele>
        <time>2015-10-20T12:50:41Z</time>
      </trkpt>
      <trkpt lat="44.41839" lon="4.93406">
        <ele>210</ele>
        <time>2015-10-20T12:52:41Z</time>
      </trkpt>
      <trkpt lat="44.41841" lon="4.93406">
        <ele>210</ele>
        <time>2015-10-20T12:54:41Z</time>
      </trkpt>
      <trkpt lat="44.4184" lon="4.93408">
        <ele>210</ele>
        <time>2015-10-20T12:56:41Z</time>
      </trkpt>
      <trkpt lat="44.41842" lon="4.93407">
        <ele>211</ele>
        <time>2015-10-20T12:58:41Z</time>
      </trkpt>
      <trkpt lat="44.4184" lon="4.93408">
        <ele>210</ele>
        <time>2015-10-20T13:00:41Z</time>
      </trkpt>
      <trkpt lat="44.41842" lon="4.93411">
        <ele>211</ele>
        <time>2015-10-20T13:02:41Z</time>
      </trkpt>
      <trkpt lat="44.41838" lon="4.93407">
        <ele>210</ele>
        <time>2015-10-20T13:04:41Z</time>
      </trkpt>
      <trkpt lat="44.41839" lon="4.93406">
        <ele>210</ele>
        <time>2015-10-20T13:06:41Z</time>
      </trkpt>
      <trkpt lat="44.4184" lon="4.93409">
        <ele>210</ele>
        <time>2015-10-20T13:08:41Z</time>
      </trkpt>
      <trkpt lat="44.41839" lon="4.9341">
        <ele>210</ele>
        <time>2015-10-20T13:10:41Z</time>
      </trkpt>
      <trkpt lat="44.41838" lon="4.93408">
        <ele>210</ele>
        <time>2015-10-20T13:12:41Z</time>
      </trkpt>
      <trkpt lat="44.4184" lon="4.93406">
        <ele>210</ele>
        <time>2015-10-20T13:14:41Z</time>
      </trkpt>
      <trkpt lat="44.41841" lon="4.93404">
        <ele>210</ele>
        <time>2015-10-20T13:16:41Z</time>
      </trkpt>
      <trkpt lat="44.4184" lon="4.93405">
        <ele>210</ele>
        <time>2015-10-20T13:18:41Z</time>
      </trkpt>
      <trkpt lat="44.41839" lon="4.93405">
        <ele>210</ele>
        <time>2015-10-20T13:20:41Z</time>
      </trkpt>
      <trkpt lat="44.41839" lon="4.93406">
        <ele>210</ele>
        <time>2015-10-20T13:22:41Z</time>
      </trkpt>
      <trkpt lat="44.41842" lon="4.93408">
        <ele>211</ele>
        <time>2015-10-20T13:24:41Z</time>
      </trkpt>
      <trkpt lat="44.41841" lon="4.9341">
        <ele>210</ele>
        <time>2015-10-20T13:26:41Z</time>
      </trkpt>
      <trkpt lat="44.41837" lon="4.93407">
        <ele>210</ele>
        <time>2015-10-20T13:28:41Z</time>
      </trkpt>
      <trkpt lat="44.41837" lon="4.93409">
        <ele>210</ele>
        <time>2015-10-20T13:30:41Z</time>
      </trkpt>
      <trkpt lat="44.41834" lon="4.93412">
        <ele>210</ele>
        <time>2015-10-20T13:32:41Z</time>
      </trkpt>
      <trkpt lat="44.41839" lon="4.93407">
        <ele>210</ele>
        <time>2015-10-20T13:34:41Z</time>
      </trkpt>
      <trkpt lat="44.41836" lon="4.93409">
        <ele>210</ele>
        <time>2015-10-20T13:36:41Z</time>
      </trkpt>
      <trkpt lat="44.41838" lon="4.93409">
        <ele>210</ele>
        <time>2015-10-20T13:38:41Z</time>
      </trkpt>
      <trkpt lat="44.41838" lon="4.93408">
        <ele>210</ele>
        <time>2015-10-20T13:40:41Z</time>
      </trkpt>
      <trkpt lat="44.41831" lon="4.93412">
        <ele>210</ele>
        <time>2015-10-20T13:42:41Z</time>
      </trkpt>
      <trkpt lat="44.41824" lon="4.93412">
        <ele>210</ele>
        <time>2015-10-20T13:44:41Z</time>
      </trkpt>
      <trkpt lat="44.41815" lon="4.93426">
        <ele>210</ele>
        <time>2015-10-20T13:46:41Z</time>
      </trkpt>
      <trkpt lat="44.41811" lon="4.93435">
        <ele>210</ele>
        <time>2015-10-20T13:48:41Z</time>
      </trkpt>
      <trkpt lat="44.41802" lon="4.93442">
        <ele>210</ele>
        <time>2015-10-20T13:50:41Z</time>
      </trkpt>
      <trkpt lat="44.41803" lon="4.93444">
        <ele>210</ele>
        <time>2015-10-20T13:52:41Z</time>
      </trkpt>
      <trkpt lat="44.41804" lon="4.93445">
        <ele>210</ele>
        <time>2015-10-20T13:54:41Z</time>
      </trkpt>
      <trkpt lat="44.41808" lon="4.9344">
        <ele>210</ele>
        <time>2015-10-20T13:56:41Z</time>
      </trkpt>
      <trkpt lat="44.41808" lon="4.93442">
        <ele>210</ele>
        <time>2015-10-20T13:58:41Z</time>
      </trkpt>
      <trkpt lat="44.41803" lon="4.93444">
        <ele>210</ele>
        <time>2015-10-20T14:00:41Z</time>
      </trkpt>
      <trkpt lat="44.41805" lon="4.93452">
        <ele>210</ele>
        <time>2015-10-20T14:02:41Z</time>
      </trkpt>
      <trkpt lat="44.41803" lon="4.93458">
        <ele>209</ele>
        <time>2015-10-20T14:04:41Z</time>
      </trkpt>
      <trkpt lat="44.41804" lon="4.9346">
        <ele>209</ele>
        <time>2015-10-20T14:06:41Z</time>
      </trkpt>
      <trkpt lat="44.41804" lon="4.93458">
        <ele>209</ele>
        <time>2015-10-20T14:08:41Z</time>
      </trkpt>
      <trkpt lat="44.41804" lon="4.93458">
        <ele>209</ele>
        <time>2015-10-20T14:10:41Z</time>
      </trkpt>
      <trkpt lat="44.41804" lon="4.93456">
        <ele>209</ele>
        <time>2015-10-20T14:12:41Z</time>
      </trkpt>
      <trkpt lat="44.41804" lon="4.93456">
        <ele>209</ele>
        <time>2015-10-20T14:14:41Z</time>
      </trkpt>
      <trkpt lat="44.41804" lon="4.93457">
        <ele>209</ele>
        <time>2015-10-20T14:16:41Z</time>
      </trkpt>
      <trkpt lat="44.41804" lon="4.93457">
        <ele>209</ele>
        <time>2015-10-20T14:18:41Z</time>
      </trkpt>
      <trkpt lat="44.41804" lon="4.93458">
        <ele>209</ele>
        <time>2015-10-20T14:20:41Z</time>
      </trkpt>
      <trkpt lat="44.41804" lon="4.93457">
        <ele>209</ele>
        <time>2015-10-20T14:22:41Z</time>
      </trkpt>
      <trkpt lat="44.41804" lon="4.93456">
        <ele>209</ele>
        <time>2015-10-20T14:24:41Z</time>
      </trkpt>
      <trkpt lat="44.41805" lon="4.93457">
        <ele>209</ele>
        <time>2015-10-20T14:26:41Z</time>
      </trkpt>
      <trkpt lat="44.41804" lon="4.93457">
        <ele>209</ele>
        <time>2015-10-20T14:28:41Z</time>
      </trkpt>
      <trkpt lat="44.41805" lon="4.93457">
        <ele>209</ele>
        <time>2015-10-20T14:30:41Z</time>
      </trkpt>
      <trkpt lat="44.41805" lon="4.93458">
        <ele>209</ele>
        <time>2015-10-20T14:32:41Z</time>
      </trkpt>
      <trkpt lat="44.41805" lon="4.93458">
        <ele>209</ele>
        <time>2015-10-20T14:34:41Z</time>
      </trkpt>
      <trkpt lat="44.41804" lon="4.93458">
        <ele>209</ele>
        <time>2015-10-20T14:36:41Z</time>
      </trkpt>
      <trkpt lat="44.41804" lon="4.93457">
        <ele>209</ele>
        <time>2015-10-20T14:38:41Z</time>
      </trkpt>
      <trkpt lat="44.41804" lon="4.93457">
        <ele>209</ele>
        <time>2015-10-20T14:40:41Z</time>
      </trkpt>
      <trkpt lat="44.41803" lon="4.93458">
        <ele>209</ele>
        <time>2015-10-20T14:42:41Z</time>
      </trkpt>
      <trkpt lat="44.41802" lon="4.93458">
        <ele>209</ele>
        <time>2015-10-20T14:44:41Z</time>
      </trkpt>
      <trkpt lat="44.41803" lon="4.93459">
        <ele>209</ele>
        <time>2015-10-20T14:46:41Z</time>
      </trkpt>
      <trkpt lat="44.41802" lon="4.93458">
        <ele>209</ele>
        <time>2015-10-20T14:48:41Z</time>
      </trkpt>
      <trkpt lat="44.41802" lon="4.93457">
        <ele>209</ele>
        <time>2015-10-20T14:50:41Z</time>
      </trkpt>
      <trkpt lat="44.41803" lon="4.93457">
        <ele>209</ele>
        <time>2015-10-20T14:52:41Z</time>
      </trkpt>
      <trkpt lat="44.41803" lon="4.93456">
        <ele>209</ele>
        <time>2015-10-20T14:54:41Z</time>
      </trkpt>
      <trkpt lat="44.41803" lon="4.93455">
        <ele>209</ele>
        <time>2015-10-20T14:56:41Z</time>
      </trkpt>
      <trkpt lat="44.41804" lon="4.93456">
        <ele>209</ele>
        <time>2015-10-20T14:58:41Z</time>
      </trkpt>
      <trkpt lat="44.41804" lon="4.93457">
        <ele>209</ele>
        <time>2015-10-20T15:00:41Z</time>
      </trkpt>
      <trkpt lat="44.41804" lon="4.93457">
        <ele>209</ele>
        <time>2015-10-20T15:02:41Z</time>
      </trkpt>
      <trkpt lat="44.41803" lon="4.93455">
        <ele>209</ele>
        <time>2015-10-20T15:04:41Z</time>
      </trkpt>
      <trkpt lat="44.41802" lon="4.93455">
        <ele>209</ele>
        <time>2015-10-20T15:06:41Z</time>
      </trkpt>
      <trkpt lat="44.41804" lon="4.93455">
        <ele>209</ele>
        <time>2015-10-20T15:08:41Z</time>
      </trkpt>
      <trkpt lat="44.41804" lon="4.93454">
        <ele>209</ele>
        <time>2015-10-20T15:10:41Z</time>
      </trkpt>
      <trkpt lat="44.41804" lon="4.93455">
        <ele>209</ele>
        <time>2015-10-20T15:12:41Z</time>
      </trkpt>
      <trkpt lat="44.41803" lon="4.93456">
        <ele>209</ele>
        <time>2015-10-20T15:14:41Z</time>
      </trkpt>
      <trkpt lat="44.41804" lon="4.93457">
        <ele>209</ele>
        <time>2015-10-20T15:16:41Z</time>
      </trkpt>
      <trkpt lat="44.41804" lon="4.93458">
        <ele>209</ele>
        <time>2015-10-20T15:18:41Z</time>
      </trkpt>
      <trkpt lat="44.41804" lon="4.93457">
        <ele>209</ele>
        <time>2015-10-20T15:20:41Z</time>
      </trkpt>
      <trkpt lat="44.41804" lon="4.93457">
        <ele>209</ele>
        <time>2015-10-20T15:22:41Z</time>
      </trkpt>
      <trkpt lat="44.41805" lon="4.93458">
        <ele>209</ele>
        <time>2015-10-20T15:24:41Z</time>
      </trkpt>
      <trkpt lat="44.41804" lon="4.93458">
        <ele>209</ele>
        <time>2015-10-20T15:26:41Z</time>
      </trkpt>
      <trkpt lat="44.41804" lon="4.93458">
        <ele>209</ele>
        <time>2015-10-20T15:28:41Z</time>
      </trkpt>
      <trkpt lat="44.41804" lon="4.93458">
        <ele>209</ele>
        <time>2015-10-20T15:30:41Z</time>
      </trkpt>
      <trkpt lat="44.41804" lon="4.93459">
        <ele>209</ele>
        <time>2015-10-20T15:32:41Z</time>
      </trkpt>
      <trkpt lat="44.41803" lon="4.93457">
        <ele>209</ele>
        <time>2015-10-20T15:34:41Z</time>
      </trkpt>
      <trkpt lat="44.41805" lon="4.93456">
        <ele>209</ele>
        <time>2015-10-20T15:36:41Z</time>
      </trkpt>
      <trkpt lat="44.41805" lon="4.93457">
        <ele>209</ele>
        <time>2015-10-20T15:38:41Z</time>
      </trkpt>
      <trkpt lat="44.41804" lon="4.93457">
        <ele>209</ele>
        <time>2015-10-20T15:40:41Z</time>
      </trkpt>
      <trkpt lat="44.41803" lon="4.93457">
        <ele>209</ele>
        <time>2015-10-20T15:42:41Z</time>
      </trkpt>
      <trkpt lat="44.41804" lon="4.93458">
        <ele>209</ele>
        <time>2015-10-20T15:44:41Z</time>
      </trkpt>
      <trkpt lat="44.41804" lon="4.93457">
        <ele>209</ele>
        <time>2015-10-20T15:46:41Z</time>
      </trkpt>
      <trkpt lat="44.41803" lon="4.93457">
        <ele>209</ele>
        <time>2015-10-20T15:48:41Z</time>
      </trkpt>
      <trkpt lat="44.41803" lon="4.93457">
        <ele>209</ele>
        <time>2015-10-20T15:50:41Z</time>
      </trkpt>
      <trkpt lat="44.41803" lon="4.93458">
        <ele>209</ele>
        <time>2015-10-20T15:52:41Z</time>
      </trkpt>
      <trkpt lat="44.41804" lon="4.93459">
        <ele>209</ele>
        <time>2015-10-20T15:54:41Z</time>
      </trkpt>
      <trkpt lat="44.41803" lon="4.93461">
        <ele>209</ele>
        <time>2015-10-20T15:56:41Z</time>
      </trkpt>
      <trkpt lat="44.41804" lon="4.93458">
        <ele>209</ele>
        <time>2015-10-20T15:58:41Z</time>
      </trkpt>
      <trkpt lat="44.41804" lon="4.93457">
        <ele>209</ele>
        <time>2015-10-20T16:00:41Z</time>
      </trkpt>
      <trkpt lat="44.41804" lon="4.93459">
        <ele>209</ele>
        <time>2015-10-20T16:02:41Z</time>
      </trkpt>
      <trkpt lat="44.41803" lon="4.93457">
        <ele>209</ele>
        <time>2015-10-20T16:04:41Z</time>
      </trkpt>
      <trkpt lat="44.41803" lon="4.93457">
        <ele>209</ele>
        <time>2015-10-20T16:06:41Z</time>
      </trkpt>
      <trkpt lat="44.41802" lon="4.93458">
        <ele>209</ele>
        <time>2015-10-20T16:08:41Z</time>
      </trkpt>
      <trkpt lat="44.41803" lon="4.93457">
        <ele>209</ele>
        <time>2015-10-20T16:10:41Z</time>
      </trkpt>
      <trkpt lat="44.41803" lon="4.93456">
        <ele>209</ele>
        <time>2015-10-20T16:12:41Z</time>
      </trkpt>
      <trkpt lat="44.41803" lon="4.93457">
        <ele>209</ele>
        <time>2015-10-20T16:14:41Z</time>
      </trkpt>
      <trkpt lat="44.41804" lon="4.93459">
        <ele>209</ele>
        <time>2015-10-20T16:16:41Z</time>
      </trkpt>
      <trkpt lat="44.41803" lon="4.93458">
        <ele>209</ele>
        <time>2015-10-20T16:18:41Z</time>
      </trkpt>
      <trkpt lat="44.41803" lon="4.93457">
        <ele>209</ele>
        <time>2015-10-20T16:20:41Z</time>
      </trkpt>
      <trkpt lat="44.41802" lon="4.93457">
        <ele>209</ele>
        <time>2015-10-20T16:22:41Z</time>
      </trkpt>
      <trkpt lat="44.41802" lon="4.93457">
        <ele>209</ele>
        <time>2015-10-20T16:24:41Z</time>
      </trkpt>
      <trkpt lat="44.418" lon="4.93457">
        <ele>209</ele>
        <time>2015-10-20T16:26:41Z</time>
      </trkpt>
      <trkpt lat="44.41802" lon="4.93455">
        <ele>209</ele>
        <time>2015-10-20T16:28:41Z</time>
      </trkpt>
      <trkpt lat="44.41803" lon="4.93457">
        <ele>209</ele>
        <time>2015-10-20T16:30:41Z</time>
      </trkpt>
      <trkpt lat="44.41803" lon="4.93457">
        <ele>209</ele>
        <time>2015-10-20T16:32:41Z</time>
      </trkpt>
      <trkpt lat="44.41804" lon="4.93456">
        <ele>209</ele>
        <time>2015-10-20T16:34:41Z</time>
      </trkpt>
      <trkpt lat="44.41804" lon="4.93456">
        <ele>209</ele>
        <time>2015-10-20T16:36:41Z</time>
      </trkpt>
      <trkpt lat="44.41804" lon="4.93451">
        <ele>210</ele>
        <time>2015-10-20T16:38:41Z</time>
      </trkpt>
      <trkpt lat="44.41803" lon="4.93453">
        <ele>209</ele>
        <time>2015-10-20T16:40:41Z</time>
      </trkpt>
      <trkpt lat="44.41804" lon="4.93452">
        <ele>209</ele>
        <time>2015-10-20T16:42:41Z</time>
      </trkpt>
      <trkpt lat="44.41808" lon="4.93447">
        <ele>210</ele>
        <time>2015-10-20T16:44:41Z</time>
      </trkpt>
      <trkpt lat="44.41808" lon="4.93445">
        <ele>210</ele>
        <time>2015-10-20T16:46:41Z</time>
      </trkpt>
      <trkpt lat="44.41813" lon="4.93437">
        <ele>210</ele>
        <time>2015-10-20T16:48:41Z</time>
      </trkpt>
      <trkpt lat="44.41816" lon="4.93435">
        <ele>210</ele>
        <time>2015-10-20T16:50:41Z</time>
      </trkpt>
      <trkpt lat="44.41815" lon="4.93436">
        <ele>210</ele>
        <time>2015-10-20T16:52:41Z</time>
      </trkpt>
      <trkpt lat="44.41815" lon="4.93429">
        <ele>210</ele>
        <time>2015-10-20T16:54:41Z</time>
      </trkpt>
      <trkpt lat="44.41809" lon="4.93422">
        <ele>210</ele>
        <time>2015-10-20T16:56:41Z</time>
      </trkpt>
      <trkpt lat="44.418" lon="4.93424">
        <ele>210</ele>
        <time>2015-10-20T16:58:41Z</time>
      </trkpt>
      <trkpt lat="44.41789" lon="4.93428">
        <ele>209</ele>
        <time>2015-10-20T17:00:41Z</time>
      </trkpt>
      <trkpt lat="44.41779" lon="4.93429">
        <ele>209</ele>
        <time>2015-10-20T17:02:41Z</time>
      </trkpt>
      <trkpt lat="44.41768" lon="4.93426">
        <ele>209</ele>
        <time>2015-10-20T17:04:41Z</time>
      </trkpt>
      <trkpt lat="44.41757" lon="4.93419">
        <ele>209</ele>
        <time>2015-10-20T17:06:41Z</time>
      </trkpt>
      <trkpt lat="44.41744" lon="4.93414">
        <ele>208</ele>
        <time>2015-10-20T17:08:41Z</time>
      </trkpt>
      <trkpt lat="44.41726" lon="4.93411">
        <ele>207</ele>
        <time>2015-10-20T17:10:41Z</time>
      </trkpt>
      <trkpt lat="44.41714" lon="4.93403">
        <ele>206</ele>
        <time>2015-10-20T17:12:41Z</time>
      </trkpt>
      <trkpt lat="44.41713" lon="4.9339">
        <ele>205</ele>
        <time>2015-10-20T17:14:41Z</time>
      </trkpt>
      <trkpt lat="44.41713" lon="4.93387">
        <ele>205</ele>
        <time>2015-10-20T17:16:41Z</time>
      </trkpt>
      <trkpt lat="44.41712" lon="4.93376">
        <ele>205</ele>
        <time>2015-10-20T17:18:41Z</time>
      </trkpt>
      <trkpt lat="44.41709" lon="4.93358">
        <ele>204</ele>
        <time>2015-10-20T17:20:41Z</time>
      </trkpt>
      <trkpt lat="44.41705" lon="4.93345">
        <ele>204</ele>
        <time>2015-10-20T17:22:41Z</time>
      </trkpt>
      <trkpt lat="44.417" lon="4.93331">
        <ele>203</ele>
        <time>2015-10-20T17:24:41Z</time>
      </trkpt>
      <trkpt lat="44.41699" lon="4.93328">
        <ele>203</ele>
        <time>2015-10-20T17:26:41Z</time>
      </trkpt>
      <trkpt lat="44.41694" lon="4.93313">
        <ele>204</ele>
        <time>2015-10-20T17:28:41Z</time>
      </trkpt>
      <trkpt lat="44.41692" lon="4.9331">
        <ele>204</ele>
        <time>2015-10-20T17:30:41Z</time>
      </trkpt>
      <trkpt lat="44.41693" lon="4.93306">
        <ele>204</ele>
        <time>2015-10-20T17:32:41Z</time>
      </trkpt>
      <trkpt lat="44.41689" lon="4.93302">
        <ele>204</ele>
        <time>2015-10-20T17:34:41Z</time>
      </trkpt>
      <trkpt lat="44.41687" lon="4.93299">
        <ele>204</ele>
        <time>2015-10-20T17:36:41Z</time>
      </trkpt>
      <trkpt lat="44.41682" lon="4.93294">
        <ele>204</ele>
        <time>2015-10-20T17:38:41Z</time>
      </trkpt>
      <trkpt lat="44.4168" lon="4.93294">
        <ele>204</ele>
        <time>2015-10-20T17:40:41Z</time>
      </trkpt>
      <trkpt lat="44.4167" lon="4.93285">
        <ele>204</ele>
        <time>2015-10-20T17:42:41Z</time>
      </trkpt>
      <trkpt lat="44.41657" lon="4.93278">
        <ele>204</ele>
        <time>2015-10-20T17:44:41Z</time>
      </trkpt>
      <trkpt lat="44.4165" lon="4.93274">
        <ele>204</ele>
        <time>2015-10-20T17:46:41Z</time>
      </trkpt>
      <trkpt lat="44.4164" lon="4.93258">
        <ele>204</ele>
        <time>2015-10-20T17:48:41Z</time>
      </trkpt>
      <trkpt lat="44.41639" lon="4.93238">
        <ele>205</ele>
        <time>2015-10-20T17:50:41Z</time>
      </trkpt>
      <trkpt lat="44.41635" lon="4.93215">
        <ele>205</ele>
        <time>2015-10-20T17:52:41Z</time>
      </trkpt>
      <trkpt lat="44.41634" lon="4.93192">
        <ele>205</ele>
        <time>2015-10-20T17:54:41Z</time>
      </trkpt>
      <trkpt lat="44.41634" lon="4.93169">
        <ele>205</ele>
        <time>2015-10-20T17:56:41Z</time>
      </trkpt>
      <trkpt lat="44.41633" lon="4.93159">
        <ele>205</ele>
        <time>2015-10-20T17:58:41Z</time>
      </trkpt>
      <trkpt lat="44.41631" lon="4.93132">
        <ele>205</ele>
        <time>2015-10-20T18:00:41Z</time>
      </trkpt>
      <trkpt lat="44.41632" lon="4.93108">
        <ele>204</ele>
        <time>2015-10-20T18:02:41Z</time>
      </trkpt>
      <trkpt lat="44.41629" lon="4.9309">
        <ele>204</ele>
        <time>2015-10-20T18:04:41Z</time>
      </trkpt>
      <trkpt lat="44.41628" lon="4.93071">
        <ele>204</ele>
        <time>2015-10-20T18:06:41Z</time>
      </trkpt>
      <trkpt lat="44.41627" lon="4.93048">
        <ele>203</ele>
        <time>2015-10-20T18:08:41Z</time>
      </trkpt>
      <trkpt lat="44.41626" lon="4.93046">
        <ele>203</ele>
        <time>2015-10-20T18:10:41Z</time>
      </trkpt>
      <trkpt lat="44.41626" lon="4.93028">
        <ele>203</ele>
        <time>2015-10-20T18:12:41Z</time>
      </trkpt>
      <trkpt lat="44.41626" lon="4.9301">
        <ele>203</ele>
        <time>2015-10-20T18:14:41Z</time>
      </trkpt>
      <trkpt lat="44.41625" lon="4.92959">
        <ele>203</ele>
        <time>2015-10-20T18:16:41Z</time>
      </trkpt>
      <trkpt lat="44.41622" lon="4.92933">
        <ele>203</ele>
        <time>2015-10-20T18:18:41Z</time>
      </trkpt>
      <trkpt lat="44.41614" lon="4.9292">
        <ele>203</ele>
        <time>2015-10-20T18:20:41Z</time>
      </trkpt>
      <trkpt lat="44.41614" lon="4.9292">
        <ele>203</ele>
        <time>2015-10-20T18:22:41Z</time>
      </trkpt>
      <trkpt lat="44.4161" lon="4.92921">
        <ele>203</ele>
        <time>2015-10-20T18:24:41Z</time>
      </trkpt>
      <trkpt lat="44.41608" lon="4.92922">
        <ele>202</ele>
        <time>2015-10-20T18:26:41Z</time>
      </trkpt>
      <trkpt lat="44.41591" lon="4.92923">
        <ele>201</ele>
        <time>2015-10-20T18:28:41Z</time>
      </trkpt>
      <trkpt lat="44.41575" lon="4.92923">
        <ele>201</ele>
        <time>2015-10-20T18:30:41Z</time>
      </trkpt>
      <trkpt lat="44.41559" lon="4.92917">
        <ele>200</ele>
        <time>2015-10-20T18:32:41Z</time>
      </trkpt>
      <trkpt lat="44.41541" lon="4.92905">
        <ele>199</ele>
        <time>2015-10-20T18:34:41Z</time>
      </trkpt>
      <trkpt lat="44.41528" lon="4.92897">
        <ele>199</ele>
        <time>2015-10-20T18:36:41Z</time>
      </trkpt>
      <trkpt lat="44.4152" lon="4.92891">
        <ele>199</ele>
        <time>2015-10-20T18:38:41Z</time>
      </trkpt>
      <trkpt lat="44.41516" lon="4.92888">
        <ele>199</ele>
        <time>2015-10-20T18:40:41Z</time>
      </trkpt>
      <trkpt lat="44.41507" lon="4.92882">
        <ele>199</ele>
        <time>2015-10-20T18:42:41Z</time>
      </trkpt>
      <trkpt lat="44.41503" lon="4.92877">
        <ele>199</ele>
        <time>2015-10-20T18:44:41Z</time>
      </trkpt>
      <trkpt lat="44.4149" lon="4.92868">
        <ele>200</ele>
        <time>2015-10-20T18:46:41Z</time>
      </trkpt>
      <trkpt lat="44.41488" lon="4.92867">
        <ele>200</ele>
        <time>2015-10-20T18:48:41Z</time>
      </trkpt>
      <trkpt lat="44.41474" lon="4.92858">
        <ele>202</ele>
        <time>2015-10-20T18:50:41Z</time>
      </trkpt>
      <trkpt lat="44.41461" lon="4.92862">
        <ele>203</ele>
        <time>2015-10-20T18:52:41Z</time>
      </trkpt>
      <trkpt lat="44.41448" lon="4.9287">
        <ele>203</ele>
        <time>2015-10-20T18:54:41Z</time>
      </trkpt>
      <trkpt lat="44.41436" lon="4.92873">
        <ele>204</ele>
        <time>2015-10-20T18:56:41Z</time>
      </trkpt>
      <trkpt lat="44.4142" lon="4.92873">
        <ele>205</ele>
        <time>2015-10-20T18:58:41Z</time>
      </trkpt>
      <trkpt lat="44.41408" lon="4.92869">
        <ele>206</ele>
        <time>2015-10-20T19:00:41Z</time>
      </trkpt>
      <trkpt lat="44.41393" lon="4.92867">
        <ele>206</ele>
        <time>2015-10-20T19:02:41Z</time>
      </trkpt>
      <trkpt lat="44.41379" lon="4.92869">
        <ele>205</ele>
        <time>2015-10-20T19:04:41Z</time>
      </trkpt>
      <trkpt lat="44.41377" lon="4.92867">
        <ele>206</ele>
        <time>2015-10-20T19:06:41Z</time>
      </trkpt>
      <trkpt lat="44.41377" lon="4.92866">
        <ele>206</ele>
        <time>2015-10-20T19:08:41Z</time>
      </trkpt>
      <trkpt lat="44.41376" lon="4.92864">
        <ele>206</ele>
        <time>2015-10-20T19:10:41Z</time>
      </trkpt>
      <trkpt lat="44.41376" lon="4.92862">
        <ele>206</ele>
        <time>2015-10-20T19:12:41Z</time>
      </trkpt>
      <trkpt lat="44.41376" lon="4.92863">
        <ele>206</ele>
        <time>2015-10-20T19:14:41Z</time>
      </trkpt>
      <trkpt lat="44.41375" lon="4.92863">
        <ele>206</ele>
        <time>2015-10-20T19:16:41Z</time>
      </trkpt>
      <trkpt lat="44.41375" lon="4.92862">
        <ele>206</ele>
        <time>2015-10-20T19:18:41Z</time>
      </trkpt>
      <trkpt lat="44.41377" lon="4.92864">
        <ele>206</ele>
        <time>2015-10-20T19:20:41Z</time>
      </trkpt>
      <trkpt lat="44.41374" lon="4.92861">
        <ele>206</ele>
        <time>2015-10-20T19:22:41Z</time>
      </trkpt>
      <trkpt lat="44.41373" lon="4.92861">
        <ele>206</ele>
        <time>2015-10-20T19:24:41Z</time>
      </trkpt>
      <trkpt lat="44.41365" lon="4.92854">
        <ele>207</ele>
        <time>2015-10-20T19:26:41Z</time>
      </trkpt>
      <trkpt lat="44.41353" lon="4.92837">
        <ele>208</ele>
        <time>2015-10-20T19:28:41Z</time>
      </trkpt>
      <trkpt lat="44.41347" lon="4.9282">
        <ele>208</ele>
        <time>2015-10-20T19:30:41Z</time>
      </trkpt>
      <trkpt lat="44.41345" lon="4.92799">
        <ele>208</ele>
        <time>2015-10-20T19:32:41Z</time>
      </trkpt>
      <trkpt lat="44.41347" lon="4.92792">
        <ele>208</ele>
        <time>2015-10-20T19:34:41Z</time>
      </trkpt>
      <trkpt lat="44.41352" lon="4.92778">
        <ele>208</ele>
        <time>2015-10-20T19:36:41Z</time>
      </trkpt>
      <trkpt lat="44.4136" lon="4.92766">
        <ele>208</ele>
        <time>2015-10-20T19:38:41Z</time>
      </trkpt>
      <trkpt lat="44.41362" lon="4.9276">
        <ele>208</ele>
        <time>2015-10-20T19:40:41Z</time>
      </trkpt>
      <trkpt lat="44.41365" lon="4.92744">
        <ele>208</ele>
        <time>2015-10-20T19:42:41Z</time>
      </trkpt>
      <trkpt lat="44.41365" lon="4.92737">
        <ele>208</ele>
        <time>2015-10-20T19:44:41Z</time>
      </trkpt>
      <trkpt lat="44.41359" lon="4.92709">
        <ele>208</ele>
        <time>2015-10-20T19:46:41Z</time>
      </trkpt>
      <trkpt lat="44.41355" lon="4.92685">
        <ele>208</ele>
        <time>2015-10-20T19:48:41Z</time>
      </trkpt>
      <trkpt lat="44.41352" lon="4.92669">
        <ele>208</ele>
        <time>2015-10-20T19:50:41Z</time>
      </trkpt>
      <trkpt lat="44.41352" lon="4.92664">
        <ele>208</ele>
        <time>2015-10-20T19:52:41Z</time>
      </trkpt>
      <trkpt lat="44.41345" lon="4.92638">
        <ele>208</ele>
        <time>2015-10-20T19:54:41Z</time>
      </trkpt>
      <trkpt lat="44.41334" lon="4.9259">
        <ele>208</ele>
        <time>2015-10-20T19:56:41Z</time>
      </trkpt>
      <trkpt lat="44.41324" lon="4.92565">
        <ele>207</ele>
        <time>2015-10-20T19:58:41Z</time>
      </trkpt>
      <trkpt lat="44.41317" lon="4.92546">
        <ele>207</ele>
        <time>2015-10-20T20:00:41Z</time>
      </trkpt>
      <trkpt lat="44.41309" lon="4.92525">
        <ele>206</ele>
        <time>2015-10-20T20:02:41Z</time>
      </trkpt>
      <trkpt lat="44.41301" lon="4.92501">
        <ele>206</ele>
        <time>2015-10-20T20:04:41Z</time>
      </trkpt>
      <trkpt lat="44.41298" lon="4.92486">
        <ele>206</ele>
        <time>2015-10-20T20:06:41Z</time>
      </trkpt>
      <trkpt lat="44.41295" lon="4.92464">
        <ele>207</ele>
        <time>2015-10-20T20:08:41Z</time>
      </trkpt>
      <trkpt lat="44.41294" lon="4.92453">
        <ele>207</ele>
        <time>2015-10-20T20:10:41Z</time>
      </trkpt>
      <trkpt lat="44.4129" lon="4.9243">
        <ele>208</ele>
        <time>2015-10-20T20:12:41Z</time>
      </trkpt>
      <trkpt lat="44.41282" lon="4.92408">
        <ele>208</ele>
        <time>2015-10-20T20:14:41Z</time>
      </trkpt>
      <trkpt lat="44.4127" lon="4.92385">
        <ele>207</ele>
        <time>2015-10-20T20:16:41Z</time>
      </trkpt>
      <trkpt lat="44.4126" lon="4.92368">
        <ele>207</ele>
        <time>2015-10-20T20:18:41Z</time>
      </trkpt>
      <trkpt lat="44.41257" lon="4.92362">
        <ele>207</ele>
        <time>2015-10-20T20:20:41Z</time>
      </trkpt>
      <trkpt lat="44.41257" lon="4.92362">
        <ele>207</ele>
        <time>2015-10-20T20:22:41Z</time>
      </trkpt>
      <trkpt lat="44.41257" lon="4.92363">
        <ele>207</ele>
        <time>2015-10-20T20:24:41Z</time>
      </trkpt>
      <trkpt lat="44.41253" lon="4.92352">
        <ele>207</ele>
        <time>2015-10-20T20:26:41Z</time>
      </trkpt>
      <trkpt lat="44.41246" lon="4.92332">
        <ele>207</ele>
        <time>2015-10-20T20:28:41Z</time>
      </trkpt>
      <trkpt lat="44.4124" lon="4.92309">
        <ele>207</ele>
        <time>2015-10-20T20:30:41Z</time>
      </trkpt>
      <trkpt lat="44.41237" lon="4.92288">
        <ele>207</ele>
        <time>2015-10-20T20:32:41Z</time>
      </trkpt>
      <trkpt lat="44.41227" lon="4.92241">
        <ele>207</ele>
        <time>2015-10-20T20:34:41Z</time>
      </trkpt>
      <trkpt lat="44.41221" lon="4.92216">
        <ele>207</ele>
        <time>2015-10-20T20:36:41Z</time>
      </trkpt>
      <trkpt lat="44.41218" lon="4.92194">
        <ele>207</ele>
        <time>2015-10-20T20:38:41Z</time>
      </trkpt>
      <trkpt lat="44.41209" lon="4.9218">
        <ele>206</ele>
        <time>2015-10-20T20:40:41Z</time>
      </trkpt>
      <trkpt lat="44.41209" lon="4.92175">
        <ele>206</ele>
        <time>2015-10-20T20:42:41Z</time>
      </trkpt>
      <trkpt lat="44.41212" lon="4.92166">
        <ele>206</ele>
        <time>2015-10-20T20:44:41Z</time>
      </trkpt>
      <trkpt lat="44.41213" lon="4.92156">
        <ele>206</ele>
        <time>2015-10-20T20:46:41Z</time>
      </trkpt>
      <trkpt lat="44.41214" lon="4.92109">
        <ele>206</ele>
        <time>2015-10-20T20:48:41Z</time>
      </trkpt>
      <trkpt lat="44.41217" lon="4.9209">
        <ele>206</ele>
        <time>2015-10-20T20:50:41Z</time>
      </trkpt>
      <trkpt lat="44.41223" lon="4.9207">
        <ele>206</ele>
        <time>2015-10-20T20:52:41Z</time>
      </trkpt>
      <trkpt lat="44.41231" lon="4.92048">
        <ele>205</ele>
        <time>2015-10-20T20:54:41Z</time>
      </trkpt>
      <trkpt lat="44.41234" lon="4.92036">
        <ele>205</ele>
        <time>2015-10-20T20:56:41Z</time>
      </trkpt>
      <trkpt lat="44.41234" lon="4.92031">
        <ele>205</ele>
        <time>2015-10-20T20:58:41Z</time>
      </trkpt>
      <trkpt lat="44.41235" lon="4.92027">
        <ele>205</ele>
        <time>2015-10-20T21:00:41Z</time>
      </trkpt>
      <trkpt lat="44.41238" lon="4.92016">
        <ele>204</ele>
        <time>2015-10-20T21:02:41Z</time>
      </trkpt>
      <trkpt lat="44.41241" lon="4.92008">
        <ele>204</ele>
        <time>2015-10-20T21:04:41Z</time>
      </trkpt>
      <trkpt lat="44.41247" lon="4.91988">
        <ele>203</ele>
        <time>2015-10-20T21:06:41Z</time>
      </trkpt>
      <trkpt lat="44.41256" lon="4.91947">
        <ele>202</ele>
        <time>2015-10-20T21:08:41Z</time>
      </trkpt>
      <trkpt lat="44.41258" lon="4.91944">
        <ele>201</ele>
        <time>2015-10-20T21:10:41Z</time>
      </trkpt>
      <trkpt lat="44.41267" lon="4.91913">
        <ele>200</ele>
        <time>2015-10-20T21:12:41Z</time>
      </trkpt>
      <trkpt lat="44.41276" lon="4.91885">
        <ele>198</ele>
        <time>2015-10-20T21:14:41Z</time>
      </trkpt>
      <trkpt lat="44.41286" lon="4.91858">
        <ele>197</ele>
        <time>2015-10-20T21:16:41Z</time>
      </trkpt>
      <trkpt lat="44.41304" lon="4.9183">
        <ele>195</ele>
        <time>2015-10-20T21:18:41Z</time>
      </trkpt>
      <trkpt lat="44.41308" lon="4.91825">
        <ele>194</ele>
        <time>2015-10-20T21:20:41Z</time>
      </trkpt>
      <trkpt lat="44.41332" lon="4.91812">
        <ele>194</ele>
        <time>2015-10-20T21:22:41Z</time>
      </trkpt>
      <trkpt lat="44.4135" lon="4.91792">
        <ele>193</ele>
        <time>2015-10-20T21:24:41Z</time>
      </trkpt>
      <trkpt lat="44.41358" lon="4.91783">
        <ele>193</ele>
        <time>2015-10-20T21:26:41Z</time>
      </trkpt>
      <trkpt lat="44.41363" lon="4.91776">
        <ele>193</ele>
        <time>2015-10-20T21:28:41Z</time>
      </trkpt>
      <trkpt lat="44.41374" lon="4.91757">
        <ele>192</ele>
        <time>2015-10-20T21:30:41Z</time>
      </trkpt>
      <trkpt lat="44.41379" lon="4.91754">
        <ele>192</ele>
        <time>2015-10-20T21:32:41Z</time>
      </trkpt>
      <trkpt lat="44.41386" lon="4.91765">
        <ele>193</ele>
        <time>2015-10-20T21:34:41Z</time>
      </trkpt>
      <trkpt lat="44.41395" lon="4.91783">
        <ele>194</ele>
        <time>2015-10-20T21:36:41Z</time>
      </trkpt>
      <trkpt lat="44.41407" lon="4.91803">
        <ele>196</ele>
        <time>2015-10-20T21:38:41Z</time>
      </trkpt>
      <trkpt lat="44.41419" lon="4.91811">
        <ele>196</ele>
        <time>2015-10-20T21:40:41Z</time>
      </trkpt>
      <trkpt lat="44.41425" lon="4.91807">
        <ele>197</ele>
        <time>2015-10-20T21:42:41Z</time>
      </trkpt>
      <trkpt lat="44.41436" lon="4.9179">
        <ele>197</ele>
        <time>2015-10-20T21:44:41Z</time>
      </trkpt>
      <trkpt lat="44.41442" lon="4.9177">
        <ele>197</ele>
        <time>2015-10-20T21:46:41Z</time>
      </trkpt>
      <trkpt lat="44.41449" lon="4.91748">
        <ele>198</ele>
        <time>2015-10-20T21:48:41Z</time>
      </trkpt>
      <trkpt lat="44.41457" lon="4.91729">
        <ele>198</ele>
        <time>2015-10-20T21:50:41Z</time>
      </trkpt>
      <trkpt lat="44.41468" lon="4.91718">
        <ele>199</ele>
        <time>2015-10-20T21:52:41Z</time>
      </trkpt>
      <trkpt lat="44.41474" lon="4.91714">
        <ele>200</ele>
        <time>2015-10-20T21:54:41Z</time>
      </trkpt>
      <trkpt lat="44.41478" lon="4.91711">
        <ele>200</ele>
        <time>2015-10-20T21:56:41Z</time>
      </trkpt>
      <trkpt lat="44.41492" lon="4.91699">
        <ele>201</ele>
        <time>2015-10-20T21:58:41Z</time>
      </trkpt>
      <trkpt lat="44.41497" lon="4.91696">
        <ele>202</ele>
        <time>2015-10-20T22:00:41Z</time>
      </trkpt>
      <trkpt lat="44.41506" lon="4.9169">
        <ele>202</ele>
        <time>2015-10-20T22:02:41Z</time>
      </trkpt>
      <trkpt lat="44.41519" lon="4.91677">
        <ele>202</ele>
        <time>2015-10-20T22:04:41Z</time>
      </trkpt>
      <trkpt lat="44.41547" lon="4.91645">
        <ele>202</ele>
        <time>2015-10-20T22:06:41Z</time>
      </trkpt>
      <trkpt lat="44.41565" lon="4.91622">
        <ele>202</ele>
        <time>2015-10-20T22:08:41Z</time>
      </trkpt>
      <trkpt lat="44.41572" lon="4.91612">
        <ele>202</ele>
        <time>2015-10-20T22:10:41Z</time>
      </trkpt>
      <trkpt lat="44.41577" lon="4.91606">
        <ele>202</ele>
        <time>2015-10-20T22:12:41Z</time>
      </trkpt>
      <trkpt lat="44.41585" lon="4.91594">
        <ele>203</ele>
        <time>2015-10-20T22:14:41Z</time>
      </trkpt>
      <trkpt lat="44.41588" lon="4.91588">
        <ele>202</ele>
        <time>2015-10-20T22:16:41Z</time>
      </trkpt>
      <trkpt lat="44.41594" lon="4.91574">
        <ele>202</ele>
        <time>2015-10-20T22:18:41Z</time>
      </trkpt>
      <trkpt lat="44.41598" lon="4.91562">
        <ele>201</ele>
        <time>2015-10-20T22:20:41Z</time>
      </trkpt>
      <trkpt lat="44.41603" lon="4.91546">
        <ele>200</ele>
        <time>2015-10-20T22:22:41Z</time>
      </trkpt>
      <trkpt lat="44.41603" lon="4.91542">
        <ele>200</ele>
        <time>2015-10-20T22:24:41Z</time>
      </trkpt>
      <trkpt lat="44.41604" lon="4.91534">
        <ele>199</ele>
        <time>2015-10-20T22:26:41Z</time>
      </trkpt>
      <trkpt lat="44.41602" lon="4.91498">
        <ele>196</ele>
        <time>2015-10-20T22:28:41Z</time>
      </trkpt>
      <trkpt lat="44.41601" lon="4.91482">
        <ele>196</ele>
        <time>2015-10-20T22:30:41Z</time>
      </trkpt>
      <trkpt lat="44.41605" lon="4.91457">
        <ele>195</ele>
        <time>2015-10-20T22:32:41Z</time>
      </trkpt>
      <trkpt lat="44.41606" lon="4.91452">
        <ele>195</ele>
        <time>2015-10-20T22:34:41Z</time>
      </trkpt>
      <trkpt lat="44.41609" lon="4.9144">
        <ele>195</ele>
        <time>2015-10-20T22:36:41Z</time>
      </trkpt>
      <trkpt lat="44.41607" lon="4.91417">
        <ele>194</ele>
        <time>2015-10-20T22:38:41Z</time>
      </trkpt>
      <trkpt lat="44.4161" lon="4.91382">
        <ele>192</ele>
        <time>2015-10-20T22:40:41Z</time>
      </trkpt>
      <trkpt lat="44.41613" lon="4.91359">
        <ele>191</ele>
        <time>2015-10-20T22:42:41Z</time>
      </trkpt>
      <trkpt lat="44.41614" lon="4.91335">
        <ele>189</ele>
        <time>2015-10-20T22:44:41Z</time>
      </trkpt>
      <trkpt lat="44.41616" lon="4.91309">
        <ele>188</ele>
        <time>2015-10-20T22:46:41Z</time>
      </trkpt>
      <trkpt lat="44.41619" lon="4.91289">
        <ele>187</ele>
        <time>2015-10-20T22:48:41Z</time>
      </trkpt>
      <trkpt lat="44.41619" lon="4.91259">
        <ele>186</ele>
        <time>2015-10-20T22:50:41Z</time>
      </trkpt>
      <trkpt lat="44.41621" lon="4.91232">
        <ele>186</ele>
        <time>2015-10-20T22:52:41Z</time>
      </trkpt>
      <trkpt lat="44.41623" lon="4.91221">
        <ele>186</ele>
        <time>2015-10-20T22:54:41Z</time>
      </trkpt>
      <trkpt lat="44.41634" lon="4.91193">
        <ele>187</ele>
        <time>2015-10-20T22:56:41Z</time>
      </trkpt>
      <trkpt lat="44.41635" lon="4.91189">
        <ele>187</ele>
        <time>2015-10-20T22:58:41Z</time>
      </trkpt>
      <trkpt lat="44.4164" lon="4.91183">
        <ele>187</ele>
        <time>2015-10-20T23:00:41Z</time>
      </trkpt>
      <trkpt lat="44.41647" lon="4.91162">
        <ele>188</ele>
        <time>2015-10-20T23:02:41Z</time>
      </trkpt>
      <trkpt lat="44.4165" lon="4.91159">
        <ele>188</ele>
        <time>2015-10-20T23:04:41Z</time>
      </trkpt>
      <trkpt lat="44.41653" lon="4.91153">
        <ele>188</ele>
        <time>2015-10-20T23:06:41Z</time>
      </trkpt>
      <trkpt lat="44.41657" lon="4.91144">
        <ele>189</ele>
        <time>2015-10-20T23:08:41Z</time>
      </trkpt>
      <trkpt lat="44.4166" lon="4.9114">
        <ele>189</ele>
        <time>2015-10-20T23:10:41Z</time>
      </trkpt>
      <trkpt lat="44.41665" lon="4.91124">
        <ele>190</ele>
        <time>2015-10-20T23:12:41Z</time>
      </trkpt>
      <trkpt lat="44.41673" lon="4.91103">
        <ele>191</ele>
        <time>2015-10-20T23:14:41Z</time>
      </trkpt>
      <trkpt lat="44.41685" lon="4.91078">
        <ele>191</ele>
        <time>2015-10-20T23:16:41Z</time>
      </trkpt>
      <trkpt lat="44.4169" lon="4.91067">
        <ele>191</ele>
        <time>2015-10-20T23:18:41Z</time>
      </trkpt>
      <trkpt lat="44.41691" lon="4.91064">
        <ele>191</ele>
        <time>2015-10-20T23:20:41Z</time>
      </trkpt>
      <trkpt lat="44.41694" lon="4.91061">
        <ele>191</ele>
        <time>2015-10-20T23:22:41Z</time>
      </trkpt>
      <trkpt lat="44.41694" lon="4.9106">
        <ele>191</ele>
        <time>2015-10-20T23:24:41Z</time>
      </trkpt>
      <trkpt lat="44.417" lon="4.91056">
        <ele>191</ele>
        <time>2015-10-20T23:26:41Z</time>
      </trkpt>
      <trkpt lat="44.41702" lon="4.91056">
        <ele>191</ele>
        <time>2015-10-20T23:28:41Z</time>
      </trkpt>
      <trkpt lat="44.41715" lon="4.91054">
        <ele>191</ele>
        <time>2015-10-20T23:30:41Z</time>
      </trkpt>
      <trkpt lat="44.41718" lon="4.91053">
        <ele>191</ele>
        <time>2015-10-20T23:32:41Z</time>
      </trkpt>
      <trkpt lat="44.41735" lon="4.91053">
        <ele>191</ele>
        <time>2015-10-20T23:34:41Z</time>
      </trkpt>
      <trkpt lat="44.41754" lon="4.9105">
        <ele>190</ele>
        <time>2015-10-20T23:36:41Z</time>
      </trkpt>
      <trkpt lat="44.41768" lon="4.91051">
        <ele>191</ele>
        <time>2015-10-20T23:38:41Z</time>
      </trkpt>
      <trkpt lat="44.41775" lon="4.91051">
        <ele>192</ele>
        <time>2015-10-20T23:40:41Z</time>
      </trkpt>
      <trkpt lat="44.41787" lon="4.91048">
        <ele>193</ele>
        <time>2015-10-20T23:42:41Z</time>
      </trkpt>
      <trkpt lat="44.41802" lon="4.91049">
        <ele>194</ele>
        <time>2015-10-20T23:44:41Z</time>
      </trkpt>
      <trkpt lat="44.41828" lon="4.91044">
        <ele>196</ele>
        <time>2015-10-20T23:46:41Z</time>
      </trkpt>
    </trkseg>
  </trk>
</gpx>